<?xml version="1.0" encoding="UTF-8" standalone="no" ?>
<gpx xmlns="http://www.topografix.com/GPX/1/1" xmlns:xsi="http://www.w3.org/2001/XMLSchema-instance" xsi:schemaLocation="http://www.topografix.com/GPX/1/1 http://www.topografix.com/GPX/1/1/gpx.xsd" version="1.1" creator="VisuGPX - https://www.visugpx.com">
  <metadata>
    <name>lundi 2016 09</name>
    <desc><![CDATA[cumul des lundi du mois de septembre 2016]]></desc>
  </metadata>
  <trk>
    <name><![CDATA[Rando Roller du lundi 12 qeptembre]]></name>
    <trkseg>
      <trkpt lat="48.85738" lon="2.34728">
        <ele>40.400001525879</ele>
        <time>2016-09-12T18:20:56.000Z</time>
      </trkpt>
      <trkpt lat="48.85737" lon="2.34722">
        <ele>40.400001525879</ele>
        <time>2016-09-12T18:21:15.000Z</time>
      </trkpt>
      <trkpt lat="48.85735" lon="2.34699">
        <ele>40</ele>
        <time>2016-09-12T18:22:12.000Z</time>
      </trkpt>
      <trkpt lat="48.85723" lon="2.34706">
        <ele>40.599998474121</ele>
        <time>2016-09-12T18:22:21.000Z</time>
      </trkpt>
      <trkpt lat="48.8572" lon="2.34715">
        <ele>40.599998474121</ele>
        <time>2016-09-12T18:22:37.000Z</time>
      </trkpt>
      <trkpt lat="48.85701" lon="2.34779">
        <ele>42.400001525879</ele>
        <time>2016-09-12T18:22:56.000Z</time>
      </trkpt>
      <trkpt lat="48.85681" lon="2.34845">
        <ele>46.400001525879</ele>
        <time>2016-09-12T18:23:07.000Z</time>
      </trkpt>
      <trkpt lat="48.85671" lon="2.34883">
        <ele>44</ele>
        <time>2016-09-12T18:23:13.000Z</time>
      </trkpt>
      <trkpt lat="48.85648" lon="2.34947">
        <ele>43.599998474121</ele>
        <time>2016-09-12T18:23:25.000Z</time>
      </trkpt>
      <trkpt lat="48.85627" lon="2.35014">
        <ele>35.599998474121</ele>
        <time>2016-09-12T18:23:37.000Z</time>
      </trkpt>
      <trkpt lat="48.85603" lon="2.35077">
        <ele>30.39999961853</ele>
        <time>2016-09-12T18:23:50.000Z</time>
      </trkpt>
      <trkpt lat="48.85592" lon="2.35105">
        <ele>31.200000762939</ele>
        <time>2016-09-12T18:23:54.000Z</time>
      </trkpt>
      <trkpt lat="48.85565" lon="2.35168">
        <ele>31.39999961853</ele>
        <time>2016-09-12T18:24:03.000Z</time>
      </trkpt>
      <trkpt lat="48.85539" lon="2.35232">
        <ele>31</ele>
        <time>2016-09-12T18:24:12.000Z</time>
      </trkpt>
      <trkpt lat="48.85516" lon="2.35293">
        <ele>32.599998474121</ele>
        <time>2016-09-12T18:24:22.000Z</time>
      </trkpt>
      <trkpt lat="48.85513" lon="2.35297">
        <ele>32.799999237061</ele>
        <time>2016-09-12T18:24:23.000Z</time>
      </trkpt>
      <trkpt lat="48.85509" lon="2.35299">
        <ele>33</ele>
        <time>2016-09-12T18:24:27.000Z</time>
      </trkpt>
      <trkpt lat="48.85477" lon="2.35329">
        <ele>30.39999961853</ele>
        <time>2016-09-12T18:24:52.000Z</time>
      </trkpt>
      <trkpt lat="48.85453" lon="2.3539">
        <ele>31</ele>
        <time>2016-09-12T18:25:11.000Z</time>
      </trkpt>
      <trkpt lat="48.85425" lon="2.35451">
        <ele>34.200000762939</ele>
        <time>2016-09-12T18:25:22.000Z</time>
      </trkpt>
      <trkpt lat="48.85397" lon="2.35506">
        <ele>39.400001525879</ele>
        <time>2016-09-12T18:25:34.000Z</time>
      </trkpt>
      <trkpt lat="48.85378" lon="2.35573">
        <ele>37.799999237061</ele>
        <time>2016-09-12T18:25:45.000Z</time>
      </trkpt>
      <trkpt lat="48.85372" lon="2.35585">
        <ele>37.400001525879</ele>
        <time>2016-09-12T18:25:46.000Z</time>
      </trkpt>
      <trkpt lat="48.85348" lon="2.3565">
        <ele>39</ele>
        <time>2016-09-12T18:25:59.000Z</time>
      </trkpt>
      <trkpt lat="48.85329" lon="2.35713">
        <ele>40.400001525879</ele>
        <time>2016-09-12T18:26:12.000Z</time>
      </trkpt>
      <trkpt lat="48.85319" lon="2.3575">
        <ele>38</ele>
        <time>2016-09-12T18:26:18.000Z</time>
      </trkpt>
      <trkpt lat="48.85308" lon="2.3578">
        <ele>37.599998474121</ele>
        <time>2016-09-12T18:26:23.000Z</time>
      </trkpt>
      <trkpt lat="48.85299" lon="2.35799">
        <ele>37</ele>
        <time>2016-09-12T18:26:26.000Z</time>
      </trkpt>
      <trkpt lat="48.85296" lon="2.3581">
        <ele>36.799999237061</ele>
        <time>2016-09-12T18:26:27.000Z</time>
      </trkpt>
      <trkpt lat="48.85281" lon="2.35844">
        <ele>36.200000762939</ele>
        <time>2016-09-12T18:26:34.000Z</time>
      </trkpt>
      <trkpt lat="48.85259" lon="2.35909">
        <ele>37.799999237061</ele>
        <time>2016-09-12T18:26:45.000Z</time>
      </trkpt>
      <trkpt lat="48.8524" lon="2.35973">
        <ele>39.799999237061</ele>
        <time>2016-09-12T18:26:55.000Z</time>
      </trkpt>
      <trkpt lat="48.85216" lon="2.36035">
        <ele>38.200000762939</ele>
        <time>2016-09-12T18:27:06.000Z</time>
      </trkpt>
      <trkpt lat="48.85183" lon="2.3609">
        <ele>40</ele>
        <time>2016-09-12T18:27:16.000Z</time>
      </trkpt>
      <trkpt lat="48.85141" lon="2.36109">
        <ele>39.200000762939</ele>
        <time>2016-09-12T18:27:28.000Z</time>
      </trkpt>
      <trkpt lat="48.85096" lon="2.36114">
        <ele>36.200000762939</ele>
        <time>2016-09-12T18:27:39.000Z</time>
      </trkpt>
      <trkpt lat="48.85076" lon="2.36115">
        <ele>36.200000762939</ele>
        <time>2016-09-12T18:27:43.000Z</time>
      </trkpt>
      <trkpt lat="48.85031" lon="2.36119">
        <ele>37.200000762939</ele>
        <time>2016-09-12T18:27:50.000Z</time>
      </trkpt>
      <trkpt lat="48.85022" lon="2.36121">
        <ele>37.400001525879</ele>
        <time>2016-09-12T18:27:52.000Z</time>
      </trkpt>
      <trkpt lat="48.84978" lon="2.3614">
        <ele>38</ele>
        <time>2016-09-12T18:27:59.000Z</time>
      </trkpt>
      <trkpt lat="48.84943" lon="2.36157">
        <ele>41.200000762939</ele>
        <time>2016-09-12T18:28:11.000Z</time>
      </trkpt>
      <trkpt lat="48.84944" lon="2.36158">
        <ele>41.200000762939</ele>
        <time>2016-09-12T18:28:14.000Z</time>
      </trkpt>
      <trkpt lat="48.84947" lon="2.36156">
        <ele>41</ele>
        <time>2016-09-12T18:28:16.000Z</time>
      </trkpt>
      <trkpt lat="48.84992" lon="2.36137">
        <ele>37.200000762939</ele>
        <time>2016-09-12T18:28:35.000Z</time>
      </trkpt>
      <trkpt lat="48.85033" lon="2.36136">
        <ele>37.200000762939</ele>
        <time>2016-09-12T18:28:46.000Z</time>
      </trkpt>
      <trkpt lat="48.85069" lon="2.36132">
        <ele>36</ele>
        <time>2016-09-12T18:29:04.000Z</time>
      </trkpt>
      <trkpt lat="48.85058" lon="2.3612">
        <ele>36.200000762939</ele>
        <time>2016-09-12T18:29:10.000Z</time>
      </trkpt>
      <trkpt lat="48.85054" lon="2.36108">
        <ele>36.400001525879</ele>
        <time>2016-09-12T18:29:28.000Z</time>
      </trkpt>
      <trkpt lat="48.85049" lon="2.36105">
        <ele>36.400001525879</ele>
        <time>2016-09-12T18:29:35.000Z</time>
      </trkpt>
      <trkpt lat="48.85002" lon="2.36107">
        <ele>36.799999237061</ele>
        <time>2016-09-12T18:29:52.000Z</time>
      </trkpt>
      <trkpt lat="48.8496" lon="2.36131">
        <ele>38.200000762939</ele>
        <time>2016-09-12T18:30:08.000Z</time>
      </trkpt>
      <trkpt lat="48.8492" lon="2.36168">
        <ele>39.400001525879</ele>
        <time>2016-09-12T18:30:25.000Z</time>
      </trkpt>
      <trkpt lat="48.84926" lon="2.36182">
        <ele>39.799999237061</ele>
        <time>2016-09-12T18:30:47.000Z</time>
      </trkpt>
      <trkpt lat="48.84928" lon="2.36174">
        <ele>40.200000762939</ele>
        <time>2016-09-12T18:30:54.000Z</time>
      </trkpt>
      <trkpt lat="48.84927" lon="2.36174">
        <ele>40.200000762939</ele>
        <time>2016-09-12T18:31:00.000Z</time>
      </trkpt>
      <trkpt lat="48.84925" lon="2.36183">
        <ele>39.599998474121</ele>
        <time>2016-09-12T18:31:04.000Z</time>
      </trkpt>
      <trkpt lat="48.84895" lon="2.36235">
        <ele>36.400001525879</ele>
        <time>2016-09-12T18:31:28.000Z</time>
      </trkpt>
      <trkpt lat="48.8486" lon="2.36279">
        <ele>35</ele>
        <time>2016-09-12T18:31:44.000Z</time>
      </trkpt>
      <trkpt lat="48.84856" lon="2.36285">
        <ele>34.799999237061</ele>
        <time>2016-09-12T18:31:45.000Z</time>
      </trkpt>
      <trkpt lat="48.84821" lon="2.36336">
        <ele>33</ele>
        <time>2016-09-12T18:32:01.000Z</time>
      </trkpt>
      <trkpt lat="48.8479" lon="2.36386">
        <ele>34.200000762939</ele>
        <time>2016-09-12T18:32:15.000Z</time>
      </trkpt>
      <trkpt lat="48.84768" lon="2.36442">
        <ele>37.400001525879</ele>
        <time>2016-09-12T18:32:31.000Z</time>
      </trkpt>
      <trkpt lat="48.84734" lon="2.36489">
        <ele>37.599998474121</ele>
        <time>2016-09-12T18:32:41.000Z</time>
      </trkpt>
      <trkpt lat="48.84704" lon="2.36498">
        <ele>35.200000762939</ele>
        <time>2016-09-12T18:33:40.000Z</time>
      </trkpt>
      <trkpt lat="48.84665" lon="2.36535">
        <ele>30.60000038147</ele>
        <time>2016-09-12T18:33:58.000Z</time>
      </trkpt>
      <trkpt lat="48.84624" lon="2.36572">
        <ele>30.60000038147</ele>
        <time>2016-09-12T18:34:10.000Z</time>
      </trkpt>
      <trkpt lat="48.84585" lon="2.36616">
        <ele>32.400001525879</ele>
        <time>2016-09-12T18:34:17.000Z</time>
      </trkpt>
      <trkpt lat="48.84547" lon="2.36665">
        <ele>35.400001525879</ele>
        <time>2016-09-12T18:34:24.000Z</time>
      </trkpt>
      <trkpt lat="48.84515" lon="2.36716">
        <ele>37.200000762939</ele>
        <time>2016-09-12T18:34:31.000Z</time>
      </trkpt>
      <trkpt lat="48.84502" lon="2.36736">
        <ele>37</ele>
        <time>2016-09-12T18:34:35.000Z</time>
      </trkpt>
      <trkpt lat="48.84497" lon="2.36745">
        <ele>36.200000762939</ele>
        <time>2016-09-12T18:34:37.000Z</time>
      </trkpt>
      <trkpt lat="48.84484" lon="2.36763">
        <ele>35.799999237061</ele>
        <time>2016-09-12T18:34:40.000Z</time>
      </trkpt>
      <trkpt lat="48.8445" lon="2.36812">
        <ele>32.400001525879</ele>
        <time>2016-09-12T18:34:48.000Z</time>
      </trkpt>
      <trkpt lat="48.84417" lon="2.36866">
        <ele>33</ele>
        <time>2016-09-12T18:34:57.000Z</time>
      </trkpt>
      <trkpt lat="48.84394" lon="2.36926">
        <ele>33.599998474121</ele>
        <time>2016-09-12T18:35:12.000Z</time>
      </trkpt>
      <trkpt lat="48.84389" lon="2.36931">
        <ele>33.599998474121</ele>
        <time>2016-09-12T18:35:18.000Z</time>
      </trkpt>
      <trkpt lat="48.84361" lon="2.36962">
        <ele>35.200000762939</ele>
        <time>2016-09-12T18:35:32.000Z</time>
      </trkpt>
      <trkpt lat="48.84344" lon="2.36972">
        <ele>35.200000762939</ele>
        <time>2016-09-12T18:35:36.000Z</time>
      </trkpt>
      <trkpt lat="48.84333" lon="2.36984">
        <ele>35</ele>
        <time>2016-09-12T18:35:39.000Z</time>
      </trkpt>
      <trkpt lat="48.84295" lon="2.37027">
        <ele>33.400001525879</ele>
        <time>2016-09-12T18:35:52.000Z</time>
      </trkpt>
      <trkpt lat="48.84263" lon="2.37078">
        <ele>30</ele>
        <time>2016-09-12T18:36:05.000Z</time>
      </trkpt>
      <trkpt lat="48.84229" lon="2.37128">
        <ele>35</ele>
        <time>2016-09-12T18:36:18.000Z</time>
      </trkpt>
      <trkpt lat="48.84199" lon="2.37181">
        <ele>32.599998474121</ele>
        <time>2016-09-12T18:36:35.000Z</time>
      </trkpt>
      <trkpt lat="48.84162" lon="2.37226">
        <ele>32</ele>
        <time>2016-09-12T18:36:47.000Z</time>
      </trkpt>
      <trkpt lat="48.84142" lon="2.37249">
        <ele>31.200000762939</ele>
        <time>2016-09-12T18:36:53.000Z</time>
      </trkpt>
      <trkpt lat="48.84134" lon="2.37258">
        <ele>31.200000762939</ele>
        <time>2016-09-12T18:36:55.000Z</time>
      </trkpt>
      <trkpt lat="48.84112" lon="2.37283">
        <ele>31.39999961853</ele>
        <time>2016-09-12T18:37:01.000Z</time>
      </trkpt>
      <trkpt lat="48.84087" lon="2.37312">
        <ele>33.799999237061</ele>
        <time>2016-09-12T18:37:08.000Z</time>
      </trkpt>
      <trkpt lat="48.84049" lon="2.37356">
        <ele>33.200000762939</ele>
        <time>2016-09-12T18:37:19.000Z</time>
      </trkpt>
      <trkpt lat="48.84009" lon="2.37398">
        <ele>33.799999237061</ele>
        <time>2016-09-12T18:37:30.000Z</time>
      </trkpt>
      <trkpt lat="48.84002" lon="2.37406">
        <ele>33.200000762939</ele>
        <time>2016-09-12T18:37:31.000Z</time>
      </trkpt>
      <trkpt lat="48.83964" lon="2.3745">
        <ele>32</ele>
        <time>2016-09-12T18:37:42.000Z</time>
      </trkpt>
      <trkpt lat="48.83955" lon="2.37461">
        <ele>31.39999961853</ele>
        <time>2016-09-12T18:37:45.000Z</time>
      </trkpt>
      <trkpt lat="48.83932" lon="2.37491">
        <ele>31</ele>
        <time>2016-09-12T18:37:56.000Z</time>
      </trkpt>
      <trkpt lat="48.83926" lon="2.37502">
        <ele>32.400001525879</ele>
        <time>2016-09-12T18:38:02.000Z</time>
      </trkpt>
      <trkpt lat="48.83922" lon="2.37511">
        <ele>33.799999237061</ele>
        <time>2016-09-12T18:38:05.000Z</time>
      </trkpt>
      <trkpt lat="48.83886" lon="2.37556">
        <ele>38.200000762939</ele>
        <time>2016-09-12T18:38:20.000Z</time>
      </trkpt>
      <trkpt lat="48.83873" lon="2.37571">
        <ele>37.200000762939</ele>
        <time>2016-09-12T18:39:06.000Z</time>
      </trkpt>
      <trkpt lat="48.83871" lon="2.37633">
        <ele>38.599998474121</ele>
        <time>2016-09-12T18:39:51.000Z</time>
      </trkpt>
      <trkpt lat="48.83872" lon="2.37636">
        <ele>38.799999237061</ele>
        <time>2016-09-12T18:39:52.000Z</time>
      </trkpt>
      <trkpt lat="48.83886" lon="2.37665">
        <ele>40.400001525879</ele>
        <time>2016-09-12T18:39:59.000Z</time>
      </trkpt>
      <trkpt lat="48.83897" lon="2.37687">
        <ele>40.200000762939</ele>
        <time>2016-09-12T18:40:03.000Z</time>
      </trkpt>
      <trkpt lat="48.83926" lon="2.37743">
        <ele>40.400001525879</ele>
        <time>2016-09-12T18:40:12.000Z</time>
      </trkpt>
      <trkpt lat="48.83957" lon="2.37799">
        <ele>43.799999237061</ele>
        <time>2016-09-12T18:40:21.000Z</time>
      </trkpt>
      <trkpt lat="48.8397" lon="2.37823">
        <ele>45.599998474121</ele>
        <time>2016-09-12T18:40:25.000Z</time>
      </trkpt>
      <trkpt lat="48.83977" lon="2.37834">
        <ele>46.200000762939</ele>
        <time>2016-09-12T18:40:27.000Z</time>
      </trkpt>
      <trkpt lat="48.84003" lon="2.37895">
        <ele>46.200000762939</ele>
        <time>2016-09-12T18:40:38.000Z</time>
      </trkpt>
      <trkpt lat="48.84028" lon="2.37954">
        <ele>44.799999237061</ele>
        <time>2016-09-12T18:40:53.000Z</time>
      </trkpt>
      <trkpt lat="48.84028" lon="2.38022">
        <ele>43.400001525879</ele>
        <time>2016-09-12T18:41:05.000Z</time>
      </trkpt>
      <trkpt lat="48.84019" lon="2.38089">
        <ele>42.799999237061</ele>
        <time>2016-09-12T18:41:15.000Z</time>
      </trkpt>
      <trkpt lat="48.84011" lon="2.38158">
        <ele>41.599998474121</ele>
        <time>2016-09-12T18:41:25.000Z</time>
      </trkpt>
      <trkpt lat="48.84003" lon="2.38204">
        <ele>39.799999237061</ele>
        <time>2016-09-12T18:41:34.000Z</time>
      </trkpt>
      <trkpt lat="48.83989" lon="2.38271">
        <ele>39.599998474121</ele>
        <time>2016-09-12T18:41:47.000Z</time>
      </trkpt>
      <trkpt lat="48.83974" lon="2.38338">
        <ele>40.799999237061</ele>
        <time>2016-09-12T18:41:59.000Z</time>
      </trkpt>
      <trkpt lat="48.83972" lon="2.3837">
        <ele>40.599998474121</ele>
        <time>2016-09-12T18:42:04.000Z</time>
      </trkpt>
      <trkpt lat="48.83963" lon="2.38415">
        <ele>39</ele>
        <time>2016-09-12T18:42:10.000Z</time>
      </trkpt>
      <trkpt lat="48.83949" lon="2.38494">
        <ele>40</ele>
        <time>2016-09-12T18:42:17.000Z</time>
      </trkpt>
      <trkpt lat="48.83936" lon="2.3856">
        <ele>40.200000762939</ele>
        <time>2016-09-12T18:42:23.000Z</time>
      </trkpt>
      <trkpt lat="48.83923" lon="2.38632">
        <ele>40.799999237061</ele>
        <time>2016-09-12T18:42:32.000Z</time>
      </trkpt>
      <trkpt lat="48.83921" lon="2.38666">
        <ele>40.599998474121</ele>
        <time>2016-09-12T18:42:36.000Z</time>
      </trkpt>
      <trkpt lat="48.83923" lon="2.38723">
        <ele>42</ele>
        <time>2016-09-12T18:42:40.000Z</time>
      </trkpt>
      <trkpt lat="48.83922" lon="2.38764">
        <ele>43.200000762939</ele>
        <time>2016-09-12T18:42:45.000Z</time>
      </trkpt>
      <trkpt lat="48.83904" lon="2.38828">
        <ele>44.200000762939</ele>
        <time>2016-09-12T18:42:56.000Z</time>
      </trkpt>
      <trkpt lat="48.83907" lon="2.38842">
        <ele>45</ele>
        <time>2016-09-12T18:43:41.000Z</time>
      </trkpt>
      <trkpt lat="48.83904" lon="2.38911">
        <ele>48.400001525879</ele>
        <time>2016-09-12T18:43:59.000Z</time>
      </trkpt>
      <trkpt lat="48.83905" lon="2.38917">
        <ele>48.400001525879</ele>
        <time>2016-09-12T18:44:02.000Z</time>
      </trkpt>
      <trkpt lat="48.8391" lon="2.38985">
        <ele>47.799999237061</ele>
        <time>2016-09-12T18:44:18.000Z</time>
      </trkpt>
      <trkpt lat="48.83915" lon="2.39056">
        <ele>47.400001525879</ele>
        <time>2016-09-12T18:44:31.000Z</time>
      </trkpt>
      <trkpt lat="48.83923" lon="2.39127">
        <ele>47.799999237061</ele>
        <time>2016-09-12T18:44:44.000Z</time>
      </trkpt>
      <trkpt lat="48.8393" lon="2.39198">
        <ele>48.799999237061</ele>
        <time>2016-09-12T18:44:57.000Z</time>
      </trkpt>
      <trkpt lat="48.83939" lon="2.39268">
        <ele>49.799999237061</ele>
        <time>2016-09-12T18:45:09.000Z</time>
      </trkpt>
      <trkpt lat="48.83942" lon="2.39341">
        <ele>52.400001525879</ele>
        <time>2016-09-12T18:45:22.000Z</time>
      </trkpt>
      <trkpt lat="48.83942" lon="2.39412">
        <ele>55.799999237061</ele>
        <time>2016-09-12T18:45:36.000Z</time>
      </trkpt>
      <trkpt lat="48.83943" lon="2.39424">
        <ele>56.200000762939</ele>
        <time>2016-09-12T18:45:41.000Z</time>
      </trkpt>
      <trkpt lat="48.83944" lon="2.39435">
        <ele>56.200000762939</ele>
        <time>2016-09-12T18:46:19.000Z</time>
      </trkpt>
      <trkpt lat="48.83949" lon="2.39504">
        <ele>57.200000762939</ele>
        <time>2016-09-12T18:46:40.000Z</time>
      </trkpt>
      <trkpt lat="48.8395" lon="2.39527">
        <ele>57.400001525879</ele>
        <time>2016-09-12T18:46:46.000Z</time>
      </trkpt>
      <trkpt lat="48.83938" lon="2.39594">
        <ele>58</ele>
        <time>2016-09-12T18:47:00.000Z</time>
      </trkpt>
      <trkpt lat="48.83927" lon="2.39664">
        <ele>58</ele>
        <time>2016-09-12T18:47:13.000Z</time>
      </trkpt>
      <trkpt lat="48.8392" lon="2.39687">
        <ele>57.799999237061</ele>
        <time>2016-09-12T18:47:17.000Z</time>
      </trkpt>
      <trkpt lat="48.83906" lon="2.39758">
        <ele>58.200000762939</ele>
        <time>2016-09-12T18:47:28.000Z</time>
      </trkpt>
      <trkpt lat="48.83885" lon="2.39821">
        <ele>60.400001525879</ele>
        <time>2016-09-12T18:47:36.000Z</time>
      </trkpt>
      <trkpt lat="48.83875" lon="2.3985">
        <ele>60.400001525879</ele>
        <time>2016-09-12T18:47:40.000Z</time>
      </trkpt>
      <trkpt lat="48.83854" lon="2.39915">
        <ele>58</ele>
        <time>2016-09-12T18:47:48.000Z</time>
      </trkpt>
      <trkpt lat="48.83832" lon="2.39975">
        <ele>56</ele>
        <time>2016-09-12T18:47:54.000Z</time>
      </trkpt>
      <trkpt lat="48.83808" lon="2.4004">
        <ele>51.200000762939</ele>
        <time>2016-09-12T18:48:00.000Z</time>
      </trkpt>
      <trkpt lat="48.83781" lon="2.40105">
        <ele>48</ele>
        <time>2016-09-12T18:48:06.000Z</time>
      </trkpt>
      <trkpt lat="48.83755" lon="2.40167">
        <ele>46.599998474121</ele>
        <time>2016-09-12T18:48:12.000Z</time>
      </trkpt>
      <trkpt lat="48.83731" lon="2.40229">
        <ele>45.200000762939</ele>
        <time>2016-09-12T18:48:21.000Z</time>
      </trkpt>
      <trkpt lat="48.83708" lon="2.40293">
        <ele>45.400001525879</ele>
        <time>2016-09-12T18:48:30.000Z</time>
      </trkpt>
      <trkpt lat="48.83684" lon="2.40352">
        <ele>43.200000762939</ele>
        <time>2016-09-12T18:48:38.000Z</time>
      </trkpt>
      <trkpt lat="48.83659" lon="2.40415">
        <ele>42</ele>
        <time>2016-09-12T18:48:45.000Z</time>
      </trkpt>
      <trkpt lat="48.83633" lon="2.4048">
        <ele>43</ele>
        <time>2016-09-12T18:48:51.000Z</time>
      </trkpt>
      <trkpt lat="48.83612" lon="2.40548">
        <ele>44.200000762939</ele>
        <time>2016-09-12T18:48:57.000Z</time>
      </trkpt>
      <trkpt lat="48.83591" lon="2.40617">
        <ele>46</ele>
        <time>2016-09-12T18:49:04.000Z</time>
      </trkpt>
      <trkpt lat="48.83558" lon="2.40649">
        <ele>48.400001525879</ele>
        <time>2016-09-12T18:49:41.000Z</time>
      </trkpt>
      <trkpt lat="48.83556" lon="2.40651">
        <ele>48.400001525879</ele>
        <time>2016-09-12T18:49:42.000Z</time>
      </trkpt>
      <trkpt lat="48.83529" lon="2.40704">
        <ele>50.599998474121</ele>
        <time>2016-09-12T18:50:02.000Z</time>
      </trkpt>
      <trkpt lat="48.83528" lon="2.4071">
        <ele>50.599998474121</ele>
        <time>2016-09-12T18:50:03.000Z</time>
      </trkpt>
      <trkpt lat="48.83522" lon="2.40729">
        <ele>50.799999237061</ele>
        <time>2016-09-12T18:50:06.000Z</time>
      </trkpt>
      <trkpt lat="48.83515" lon="2.4075">
        <ele>51.400001525879</ele>
        <time>2016-09-12T18:50:09.000Z</time>
      </trkpt>
      <trkpt lat="48.83507" lon="2.4078">
        <ele>52.400001525879</ele>
        <time>2016-09-12T18:50:13.000Z</time>
      </trkpt>
      <trkpt lat="48.83492" lon="2.40842">
        <ele>53.200000762939</ele>
        <time>2016-09-12T18:50:28.000Z</time>
      </trkpt>
      <trkpt lat="48.8347" lon="2.40906">
        <ele>51.200000762939</ele>
        <time>2016-09-12T18:50:43.000Z</time>
      </trkpt>
      <trkpt lat="48.83448" lon="2.4097">
        <ele>49.599998474121</ele>
        <time>2016-09-12T18:50:57.000Z</time>
      </trkpt>
      <trkpt lat="48.83421" lon="2.41032">
        <ele>48.200000762939</ele>
        <time>2016-09-12T18:51:10.000Z</time>
      </trkpt>
      <trkpt lat="48.83406" lon="2.41078">
        <ele>47.599998474121</ele>
        <time>2016-09-12T18:51:18.000Z</time>
      </trkpt>
      <trkpt lat="48.83395" lon="2.41145">
        <ele>49.200000762939</ele>
        <time>2016-09-12T18:51:32.000Z</time>
      </trkpt>
      <trkpt lat="48.83385" lon="2.41215">
        <ele>51</ele>
        <time>2016-09-12T18:51:46.000Z</time>
      </trkpt>
      <trkpt lat="48.83385" lon="2.41283">
        <ele>52.599998474121</ele>
        <time>2016-09-12T18:52:22.000Z</time>
      </trkpt>
      <trkpt lat="48.83386" lon="2.41283">
        <ele>52.599998474121</ele>
        <time>2016-09-12T18:52:51.000Z</time>
      </trkpt>
      <trkpt lat="48.83383" lon="2.41353">
        <ele>53.400001525879</ele>
        <time>2016-09-12T18:53:11.000Z</time>
      </trkpt>
      <trkpt lat="48.83381" lon="2.41423">
        <ele>51</ele>
        <time>2016-09-12T18:53:24.000Z</time>
      </trkpt>
      <trkpt lat="48.83381" lon="2.41448">
        <ele>50.599998474121</ele>
        <time>2016-09-12T18:53:28.000Z</time>
      </trkpt>
      <trkpt lat="48.83383" lon="2.41521">
        <ele>52.599998474121</ele>
        <time>2016-09-12T18:53:40.000Z</time>
      </trkpt>
      <trkpt lat="48.83384" lon="2.41535">
        <ele>52.599998474121</ele>
        <time>2016-09-12T18:53:42.000Z</time>
      </trkpt>
      <trkpt lat="48.83394" lon="2.41598">
        <ele>53</ele>
        <time>2016-09-12T18:53:52.000Z</time>
      </trkpt>
      <trkpt lat="48.83396" lon="2.41611">
        <ele>53.200000762939</ele>
        <time>2016-09-12T18:53:54.000Z</time>
      </trkpt>
      <trkpt lat="48.83411" lon="2.41678">
        <ele>53</ele>
        <time>2016-09-12T18:54:04.000Z</time>
      </trkpt>
      <trkpt lat="48.83425" lon="2.41744">
        <ele>52</ele>
        <time>2016-09-12T18:54:15.000Z</time>
      </trkpt>
      <trkpt lat="48.83435" lon="2.41782">
        <ele>51.599998474121</ele>
        <time>2016-09-12T18:54:22.000Z</time>
      </trkpt>
      <trkpt lat="48.83442" lon="2.41805">
        <ele>51.400001525879</ele>
        <time>2016-09-12T18:54:26.000Z</time>
      </trkpt>
      <trkpt lat="48.83462" lon="2.41872">
        <ele>52.400001525879</ele>
        <time>2016-09-12T18:54:38.000Z</time>
      </trkpt>
      <trkpt lat="48.83482" lon="2.41937">
        <ele>54.200000762939</ele>
        <time>2016-09-12T18:54:51.000Z</time>
      </trkpt>
      <trkpt lat="48.83495" lon="2.41971">
        <ele>54.599998474121</ele>
        <time>2016-09-12T18:55:17.000Z</time>
      </trkpt>
      <trkpt lat="48.83496" lon="2.4198">
        <ele>54.799999237061</ele>
        <time>2016-09-12T18:58:30.000Z</time>
      </trkpt>
      <trkpt lat="48.83517" lon="2.42043">
        <ele>54.400001525879</ele>
        <time>2016-09-12T18:58:47.000Z</time>
      </trkpt>
      <trkpt lat="48.83542" lon="2.42107">
        <ele>54.799999237061</ele>
        <time>2016-09-12T18:58:58.000Z</time>
      </trkpt>
      <trkpt lat="48.83565" lon="2.42171">
        <ele>56.400001525879</ele>
        <time>2016-09-12T18:59:07.000Z</time>
      </trkpt>
      <trkpt lat="48.8357" lon="2.42186">
        <ele>55.799999237061</ele>
        <time>2016-09-12T18:59:09.000Z</time>
      </trkpt>
      <trkpt lat="48.83598" lon="2.42248">
        <ele>54</ele>
        <time>2016-09-12T18:59:18.000Z</time>
      </trkpt>
      <trkpt lat="48.83607" lon="2.42268">
        <ele>53.400001525879</ele>
        <time>2016-09-12T18:59:21.000Z</time>
      </trkpt>
      <trkpt lat="48.83619" lon="2.42293">
        <ele>52.599998474121</ele>
        <time>2016-09-12T18:59:25.000Z</time>
      </trkpt>
      <trkpt lat="48.83633" lon="2.42318">
        <ele>51.799999237061</ele>
        <time>2016-09-12T18:59:29.000Z</time>
      </trkpt>
      <trkpt lat="48.83666" lon="2.42372">
        <ele>51.799999237061</ele>
        <time>2016-09-12T18:59:38.000Z</time>
      </trkpt>
      <trkpt lat="48.83698" lon="2.42432">
        <ele>52</ele>
        <time>2016-09-12T18:59:46.000Z</time>
      </trkpt>
      <trkpt lat="48.83716" lon="2.42464">
        <ele>52.200000762939</ele>
        <time>2016-09-12T18:59:50.000Z</time>
      </trkpt>
      <trkpt lat="48.83751" lon="2.42515">
        <ele>52.400001525879</ele>
        <time>2016-09-12T18:59:57.000Z</time>
      </trkpt>
      <trkpt lat="48.83784" lon="2.42567">
        <ele>52.200000762939</ele>
        <time>2016-09-12T19:00:03.000Z</time>
      </trkpt>
      <trkpt lat="48.83812" lon="2.42626">
        <ele>50.599998474121</ele>
        <time>2016-09-12T19:00:09.000Z</time>
      </trkpt>
      <trkpt lat="48.83836" lon="2.42687">
        <ele>48.400001525879</ele>
        <time>2016-09-12T19:00:15.000Z</time>
      </trkpt>
      <trkpt lat="48.83863" lon="2.4275">
        <ele>46</ele>
        <time>2016-09-12T19:00:21.000Z</time>
      </trkpt>
      <trkpt lat="48.83871" lon="2.42771">
        <ele>46.200000762939</ele>
        <time>2016-09-12T19:00:22.000Z</time>
      </trkpt>
      <trkpt lat="48.83875" lon="2.42782">
        <ele>46.400001525879</ele>
        <time>2016-09-12T19:00:24.000Z</time>
      </trkpt>
      <trkpt lat="48.83898" lon="2.42844">
        <ele>47</ele>
        <time>2016-09-12T19:00:30.000Z</time>
      </trkpt>
      <trkpt lat="48.83917" lon="2.42905">
        <ele>47.200000762939</ele>
        <time>2016-09-12T19:00:36.000Z</time>
      </trkpt>
      <trkpt lat="48.83936" lon="2.42976">
        <ele>47</ele>
        <time>2016-09-12T19:00:43.000Z</time>
      </trkpt>
      <trkpt lat="48.83955" lon="2.43045">
        <ele>46.400001525879</ele>
        <time>2016-09-12T19:00:50.000Z</time>
      </trkpt>
      <trkpt lat="48.83968" lon="2.43091">
        <ele>46.200000762939</ele>
        <time>2016-09-12T19:00:55.000Z</time>
      </trkpt>
      <trkpt lat="48.8397" lon="2.431">
        <ele>46.599998474121</ele>
        <time>2016-09-12T19:00:56.000Z</time>
      </trkpt>
      <trkpt lat="48.83972" lon="2.43109">
        <ele>46.799999237061</ele>
        <time>2016-09-12T19:00:57.000Z</time>
      </trkpt>
      <trkpt lat="48.83977" lon="2.43126">
        <ele>47</ele>
        <time>2016-09-12T19:00:59.000Z</time>
      </trkpt>
      <trkpt lat="48.83986" lon="2.4316">
        <ele>46.599998474121</ele>
        <time>2016-09-12T19:01:03.000Z</time>
      </trkpt>
      <trkpt lat="48.83991" lon="2.43176">
        <ele>46.799999237061</ele>
        <time>2016-09-12T19:01:05.000Z</time>
      </trkpt>
      <trkpt lat="48.84002" lon="2.43216">
        <ele>48</ele>
        <time>2016-09-12T19:01:10.000Z</time>
      </trkpt>
      <trkpt lat="48.84021" lon="2.43282">
        <ele>49.400001525879</ele>
        <time>2016-09-12T19:01:19.000Z</time>
      </trkpt>
      <trkpt lat="48.84032" lon="2.43324">
        <ele>50</ele>
        <time>2016-09-12T19:01:25.000Z</time>
      </trkpt>
      <trkpt lat="48.84039" lon="2.43352">
        <ele>50.200000762939</ele>
        <time>2016-09-12T19:01:29.000Z</time>
      </trkpt>
      <trkpt lat="48.84048" lon="2.43387">
        <ele>50.599998474121</ele>
        <time>2016-09-12T19:01:34.000Z</time>
      </trkpt>
      <trkpt lat="48.84047" lon="2.43456">
        <ele>51.599998474121</ele>
        <time>2016-09-12T19:01:45.000Z</time>
      </trkpt>
      <trkpt lat="48.84032" lon="2.4352">
        <ele>50.599998474121</ele>
        <time>2016-09-12T19:02:03.000Z</time>
      </trkpt>
      <trkpt lat="48.8403" lon="2.43524">
        <ele>50.400001525879</ele>
        <time>2016-09-12T19:03:48.000Z</time>
      </trkpt>
      <trkpt lat="48.8403" lon="2.43592">
        <ele>48.400001525879</ele>
        <time>2016-09-12T19:04:03.000Z</time>
      </trkpt>
      <trkpt lat="48.84046" lon="2.43661">
        <ele>50.400001525879</ele>
        <time>2016-09-12T19:04:16.000Z</time>
      </trkpt>
      <trkpt lat="48.84052" lon="2.43687">
        <ele>50.400001525879</ele>
        <time>2016-09-12T19:04:21.000Z</time>
      </trkpt>
      <trkpt lat="48.84047" lon="2.43758">
        <ele>51</ele>
        <time>2016-09-12T19:04:32.000Z</time>
      </trkpt>
      <trkpt lat="48.84044" lon="2.438">
        <ele>51.400001525879</ele>
        <time>2016-09-12T19:04:38.000Z</time>
      </trkpt>
      <trkpt lat="48.8405" lon="2.43865">
        <ele>51.599998474121</ele>
        <time>2016-09-12T19:04:49.000Z</time>
      </trkpt>
      <trkpt lat="48.84097" lon="2.43875">
        <ele>51.200000762939</ele>
        <time>2016-09-12T19:05:05.000Z</time>
      </trkpt>
      <trkpt lat="48.84142" lon="2.43885">
        <ele>51</ele>
        <time>2016-09-12T19:05:17.000Z</time>
      </trkpt>
      <trkpt lat="48.84189" lon="2.43894">
        <ele>51.200000762939</ele>
        <time>2016-09-12T19:05:29.000Z</time>
      </trkpt>
      <trkpt lat="48.84236" lon="2.43899">
        <ele>51.200000762939</ele>
        <time>2016-09-12T19:05:43.000Z</time>
      </trkpt>
      <trkpt lat="48.84283" lon="2.43911">
        <ele>51.200000762939</ele>
        <time>2016-09-12T19:05:57.000Z</time>
      </trkpt>
      <trkpt lat="48.84331" lon="2.43922">
        <ele>51.400001525879</ele>
        <time>2016-09-12T19:06:11.000Z</time>
      </trkpt>
      <trkpt lat="48.84379" lon="2.43932">
        <ele>51.599998474121</ele>
        <time>2016-09-12T19:06:24.000Z</time>
      </trkpt>
      <trkpt lat="48.844" lon="2.43938">
        <ele>51.799999237061</ele>
        <time>2016-09-12T19:06:29.000Z</time>
      </trkpt>
      <trkpt lat="48.84443" lon="2.43949">
        <ele>52</ele>
        <time>2016-09-12T19:07:47.000Z</time>
      </trkpt>
      <trkpt lat="48.84443" lon="2.4395">
        <ele>52</ele>
        <time>2016-09-12T19:08:08.000Z</time>
      </trkpt>
      <trkpt lat="48.84482" lon="2.43954">
        <ele>53.599998474121</ele>
        <time>2016-09-12T19:08:22.000Z</time>
      </trkpt>
      <trkpt lat="48.84529" lon="2.43968">
        <ele>54.200000762939</ele>
        <time>2016-09-12T19:08:32.000Z</time>
      </trkpt>
      <trkpt lat="48.84567" lon="2.43975">
        <ele>53.799999237061</ele>
        <time>2016-09-12T19:08:40.000Z</time>
      </trkpt>
      <trkpt lat="48.84602" lon="2.43983">
        <ele>53.200000762939</ele>
        <time>2016-09-12T19:08:49.000Z</time>
      </trkpt>
      <trkpt lat="48.84603" lon="2.43994">
        <ele>53</ele>
        <time>2016-09-12T19:08:51.000Z</time>
      </trkpt>
      <trkpt lat="48.84601" lon="2.44064">
        <ele>53</ele>
        <time>2016-09-12T19:09:00.000Z</time>
      </trkpt>
      <trkpt lat="48.84599" lon="2.44135">
        <ele>54.400001525879</ele>
        <time>2016-09-12T19:09:08.000Z</time>
      </trkpt>
      <trkpt lat="48.84599" lon="2.44205">
        <ele>54.799999237061</ele>
        <time>2016-09-12T19:09:15.000Z</time>
      </trkpt>
      <trkpt lat="48.84603" lon="2.44279">
        <ele>54.599998474121</ele>
        <time>2016-09-12T19:09:22.000Z</time>
      </trkpt>
      <trkpt lat="48.84604" lon="2.44351">
        <ele>54.200000762939</ele>
        <time>2016-09-12T19:09:29.000Z</time>
      </trkpt>
      <trkpt lat="48.84603" lon="2.44425">
        <ele>55.200000762939</ele>
        <time>2016-09-12T19:09:36.000Z</time>
      </trkpt>
      <trkpt lat="48.84605" lon="2.44455">
        <ele>56</ele>
        <time>2016-09-12T19:09:39.000Z</time>
      </trkpt>
      <trkpt lat="48.84605" lon="2.44528">
        <ele>56</ele>
        <time>2016-09-12T19:09:46.000Z</time>
      </trkpt>
      <trkpt lat="48.846" lon="2.44604">
        <ele>53.400001525879</ele>
        <time>2016-09-12T19:09:53.000Z</time>
      </trkpt>
      <trkpt lat="48.84596" lon="2.44677">
        <ele>52.400001525879</ele>
        <time>2016-09-12T19:10:00.000Z</time>
      </trkpt>
      <trkpt lat="48.84589" lon="2.44739">
        <ele>54</ele>
        <time>2016-09-12T19:10:07.000Z</time>
      </trkpt>
      <trkpt lat="48.84582" lon="2.44809">
        <ele>53.799999237061</ele>
        <time>2016-09-12T19:10:17.000Z</time>
      </trkpt>
      <trkpt lat="48.84578" lon="2.44838">
        <ele>54</ele>
        <time>2016-09-12T19:10:23.000Z</time>
      </trkpt>
      <trkpt lat="48.84577" lon="2.4484">
        <ele>54</ele>
        <time>2016-09-12T19:10:26.000Z</time>
      </trkpt>
      <trkpt lat="48.84579" lon="2.44767">
        <ele>53.599998474121</ele>
        <time>2016-09-12T19:10:39.000Z</time>
      </trkpt>
      <trkpt lat="48.84583" lon="2.44695">
        <ele>53.200000762939</ele>
        <time>2016-09-12T19:10:48.000Z</time>
      </trkpt>
      <trkpt lat="48.84583" lon="2.44687">
        <ele>53</ele>
        <time>2016-09-12T19:10:49.000Z</time>
      </trkpt>
      <trkpt lat="48.84581" lon="2.44673">
        <ele>52.799999237061</ele>
        <time>2016-09-12T19:10:51.000Z</time>
      </trkpt>
      <trkpt lat="48.84575" lon="2.44664">
        <ele>52.799999237061</ele>
        <time>2016-09-12T19:10:53.000Z</time>
      </trkpt>
      <trkpt lat="48.84565" lon="2.44659">
        <ele>53</ele>
        <time>2016-09-12T19:10:55.000Z</time>
      </trkpt>
      <trkpt lat="48.84512" lon="2.44652">
        <ele>53.799999237061</ele>
        <time>2016-09-12T19:11:02.000Z</time>
      </trkpt>
      <trkpt lat="48.84508" lon="2.44656">
        <ele>54</ele>
        <time>2016-09-12T19:11:04.000Z</time>
      </trkpt>
      <trkpt lat="48.84503" lon="2.44673">
        <ele>54.200000762939</ele>
        <time>2016-09-12T19:11:06.000Z</time>
      </trkpt>
      <trkpt lat="48.845" lon="2.44747">
        <ele>53.200000762939</ele>
        <time>2016-09-12T19:11:14.000Z</time>
      </trkpt>
      <trkpt lat="48.84496" lon="2.44817">
        <ele>54.200000762939</ele>
        <time>2016-09-12T19:11:22.000Z</time>
      </trkpt>
      <trkpt lat="48.84494" lon="2.44834">
        <ele>54.799999237061</ele>
        <time>2016-09-12T19:11:23.000Z</time>
      </trkpt>
      <trkpt lat="48.84484" lon="2.44904">
        <ele>55.599998474121</ele>
        <time>2016-09-12T19:11:32.000Z</time>
      </trkpt>
      <trkpt lat="48.84476" lon="2.44978">
        <ele>55.200000762939</ele>
        <time>2016-09-12T19:11:40.000Z</time>
      </trkpt>
      <trkpt lat="48.84468" lon="2.45049">
        <ele>54.599998474121</ele>
        <time>2016-09-12T19:11:50.000Z</time>
      </trkpt>
      <trkpt lat="48.84457" lon="2.45116">
        <ele>54.799999237061</ele>
        <time>2016-09-12T19:12:08.000Z</time>
      </trkpt>
      <trkpt lat="48.84447" lon="2.4518">
        <ele>55.200000762939</ele>
        <time>2016-09-12T19:12:21.000Z</time>
      </trkpt>
      <trkpt lat="48.84443" lon="2.45212">
        <ele>55</ele>
        <time>2016-09-12T19:12:26.000Z</time>
      </trkpt>
      <trkpt lat="48.84435" lon="2.45285">
        <ele>54.599998474121</ele>
        <time>2016-09-12T19:12:34.000Z</time>
      </trkpt>
      <trkpt lat="48.84424" lon="2.45356">
        <ele>54.200000762939</ele>
        <time>2016-09-12T19:12:40.000Z</time>
      </trkpt>
      <trkpt lat="48.84414" lon="2.45423">
        <ele>54.400001525879</ele>
        <time>2016-09-12T19:12:46.000Z</time>
      </trkpt>
      <trkpt lat="48.84413" lon="2.45444">
        <ele>54.599998474121</ele>
        <time>2016-09-12T19:12:47.000Z</time>
      </trkpt>
      <trkpt lat="48.84407" lon="2.45513">
        <ele>56</ele>
        <time>2016-09-12T19:12:55.000Z</time>
      </trkpt>
      <trkpt lat="48.84399" lon="2.45586">
        <ele>57.400001525879</ele>
        <time>2016-09-12T19:13:03.000Z</time>
      </trkpt>
      <trkpt lat="48.84391" lon="2.45654">
        <ele>57.200000762939</ele>
        <time>2016-09-12T19:13:11.000Z</time>
      </trkpt>
      <trkpt lat="48.8439" lon="2.45662">
        <ele>57.200000762939</ele>
        <time>2016-09-12T19:13:12.000Z</time>
      </trkpt>
      <trkpt lat="48.84383" lon="2.45689">
        <ele>57.400001525879</ele>
        <time>2016-09-12T19:13:15.000Z</time>
      </trkpt>
      <trkpt lat="48.84377" lon="2.45744">
        <ele>57.400001525879</ele>
        <time>2016-09-12T19:13:22.000Z</time>
      </trkpt>
      <trkpt lat="48.84366" lon="2.45798">
        <ele>57.599998474121</ele>
        <time>2016-09-12T19:13:29.000Z</time>
      </trkpt>
      <trkpt lat="48.84362" lon="2.45829">
        <ele>57.200000762939</ele>
        <time>2016-09-12T19:13:33.000Z</time>
      </trkpt>
      <trkpt lat="48.8436" lon="2.4585">
        <ele>57.200000762939</ele>
        <time>2016-09-12T19:13:36.000Z</time>
      </trkpt>
      <trkpt lat="48.84352" lon="2.45887">
        <ele>57.799999237061</ele>
        <time>2016-09-12T19:13:41.000Z</time>
      </trkpt>
      <trkpt lat="48.84332" lon="2.45945">
        <ele>57.599998474121</ele>
        <time>2016-09-12T19:13:50.000Z</time>
      </trkpt>
      <trkpt lat="48.84317" lon="2.46016">
        <ele>57.400001525879</ele>
        <time>2016-09-12T19:14:00.000Z</time>
      </trkpt>
      <trkpt lat="48.84303" lon="2.46089">
        <ele>59.799999237061</ele>
        <time>2016-09-12T19:14:09.000Z</time>
      </trkpt>
      <trkpt lat="48.84286" lon="2.46155">
        <ele>59.400001525879</ele>
        <time>2016-09-12T19:14:17.000Z</time>
      </trkpt>
      <trkpt lat="48.84278" lon="2.46189">
        <ele>59</ele>
        <time>2016-09-12T19:14:21.000Z</time>
      </trkpt>
      <trkpt lat="48.84272" lon="2.46212">
        <ele>58.400001525879</ele>
        <time>2016-09-12T19:14:24.000Z</time>
      </trkpt>
      <trkpt lat="48.84258" lon="2.4626">
        <ele>58.400001525879</ele>
        <time>2016-09-12T19:14:30.000Z</time>
      </trkpt>
      <trkpt lat="48.84231" lon="2.46312">
        <ele>61</ele>
        <time>2016-09-12T19:14:54.000Z</time>
      </trkpt>
      <trkpt lat="48.84229" lon="2.46316">
        <ele>61.200000762939</ele>
        <time>2016-09-12T19:15:39.000Z</time>
      </trkpt>
      <trkpt lat="48.84215" lon="2.46355">
        <ele>62.200000762939</ele>
        <time>2016-09-12T19:18:28.000Z</time>
      </trkpt>
      <trkpt lat="48.84196" lon="2.46402">
        <ele>63.599998474121</ele>
        <time>2016-09-12T19:18:40.000Z</time>
      </trkpt>
      <trkpt lat="48.84187" lon="2.46424">
        <ele>63.799999237061</ele>
        <time>2016-09-12T19:18:44.000Z</time>
      </trkpt>
      <trkpt lat="48.84156" lon="2.46479">
        <ele>62.799999237061</ele>
        <time>2016-09-12T19:18:55.000Z</time>
      </trkpt>
      <trkpt lat="48.84144" lon="2.46499">
        <ele>63</ele>
        <time>2016-09-12T19:18:59.000Z</time>
      </trkpt>
      <trkpt lat="48.84111" lon="2.46546">
        <ele>63</ele>
        <time>2016-09-12T19:19:09.000Z</time>
      </trkpt>
      <trkpt lat="48.84074" lon="2.46595">
        <ele>63</ele>
        <time>2016-09-12T19:19:21.000Z</time>
      </trkpt>
      <trkpt lat="48.8405" lon="2.46619">
        <ele>62.799999237061</ele>
        <time>2016-09-12T19:19:27.000Z</time>
      </trkpt>
      <trkpt lat="48.84034" lon="2.46635">
        <ele>62</ele>
        <time>2016-09-12T19:19:31.000Z</time>
      </trkpt>
      <trkpt lat="48.83993" lon="2.4667">
        <ele>60.400001525879</ele>
        <time>2016-09-12T19:19:40.000Z</time>
      </trkpt>
      <trkpt lat="48.83961" lon="2.46697">
        <ele>60</ele>
        <time>2016-09-12T19:19:47.000Z</time>
      </trkpt>
      <trkpt lat="48.83917" lon="2.46735">
        <ele>60.799999237061</ele>
        <time>2016-09-12T19:19:56.000Z</time>
      </trkpt>
      <trkpt lat="48.83907" lon="2.46743">
        <ele>61.200000762939</ele>
        <time>2016-09-12T19:19:57.000Z</time>
      </trkpt>
      <trkpt lat="48.83872" lon="2.46772">
        <ele>62.200000762939</ele>
        <time>2016-09-12T19:20:07.000Z</time>
      </trkpt>
      <trkpt lat="48.83834" lon="2.46813">
        <ele>61.400001525879</ele>
        <time>2016-09-12T19:20:17.000Z</time>
      </trkpt>
      <trkpt lat="48.83796" lon="2.46857">
        <ele>61.200000762939</ele>
        <time>2016-09-12T19:20:28.000Z</time>
      </trkpt>
      <trkpt lat="48.83759" lon="2.46902">
        <ele>62.599998474121</ele>
        <time>2016-09-12T19:20:38.000Z</time>
      </trkpt>
      <trkpt lat="48.83719" lon="2.46944">
        <ele>62.599998474121</ele>
        <time>2016-09-12T19:20:49.000Z</time>
      </trkpt>
      <trkpt lat="48.83678" lon="2.46971">
        <ele>62.400001525879</ele>
        <time>2016-09-12T19:20:59.000Z</time>
      </trkpt>
      <trkpt lat="48.83651" lon="2.4699">
        <ele>63.200000762939</ele>
        <time>2016-09-12T19:21:47.000Z</time>
      </trkpt>
      <trkpt lat="48.83603" lon="2.46987">
        <ele>64.800003051758</ele>
        <time>2016-09-12T19:22:04.000Z</time>
      </trkpt>
      <trkpt lat="48.83594" lon="2.46986">
        <ele>64.800003051758</ele>
        <time>2016-09-12T19:22:06.000Z</time>
      </trkpt>
      <trkpt lat="48.83568" lon="2.46983">
        <ele>64.800003051758</ele>
        <time>2016-09-12T19:22:11.000Z</time>
      </trkpt>
      <trkpt lat="48.83518" lon="2.46972">
        <ele>64.599998474121</ele>
        <time>2016-09-12T19:22:20.000Z</time>
      </trkpt>
      <trkpt lat="48.8347" lon="2.46954">
        <ele>62.599998474121</ele>
        <time>2016-09-12T19:22:29.000Z</time>
      </trkpt>
      <trkpt lat="48.83458" lon="2.46951">
        <ele>62.200000762939</ele>
        <time>2016-09-12T19:22:31.000Z</time>
      </trkpt>
      <trkpt lat="48.83413" lon="2.46915">
        <ele>61</ele>
        <time>2016-09-12T19:22:40.000Z</time>
      </trkpt>
      <trkpt lat="48.83398" lon="2.46902">
        <ele>61</ele>
        <time>2016-09-12T19:22:43.000Z</time>
      </trkpt>
      <trkpt lat="48.83375" lon="2.46878">
        <ele>61</ele>
        <time>2016-09-12T19:22:48.000Z</time>
      </trkpt>
      <trkpt lat="48.83343" lon="2.46823">
        <ele>61</ele>
        <time>2016-09-12T19:22:56.000Z</time>
      </trkpt>
      <trkpt lat="48.83314" lon="2.46763">
        <ele>61</ele>
        <time>2016-09-12T19:23:04.000Z</time>
      </trkpt>
      <trkpt lat="48.83286" lon="2.46708">
        <ele>60.400001525879</ele>
        <time>2016-09-12T19:23:12.000Z</time>
      </trkpt>
      <trkpt lat="48.83252" lon="2.46651">
        <ele>60.400001525879</ele>
        <time>2016-09-12T19:23:21.000Z</time>
      </trkpt>
      <trkpt lat="48.83213" lon="2.46612">
        <ele>60.799999237061</ele>
        <time>2016-09-12T19:23:29.000Z</time>
      </trkpt>
      <trkpt lat="48.83172" lon="2.4658">
        <ele>61.200000762939</ele>
        <time>2016-09-12T19:23:37.000Z</time>
      </trkpt>
      <trkpt lat="48.83149" lon="2.46567">
        <ele>61.400001525879</ele>
        <time>2016-09-12T19:23:41.000Z</time>
      </trkpt>
      <trkpt lat="48.83105" lon="2.46543">
        <ele>62</ele>
        <time>2016-09-12T19:23:48.000Z</time>
      </trkpt>
      <trkpt lat="48.83099" lon="2.46541">
        <ele>62</ele>
        <time>2016-09-12T19:23:49.000Z</time>
      </trkpt>
      <trkpt lat="48.83057" lon="2.46525">
        <ele>62</ele>
        <time>2016-09-12T19:23:56.000Z</time>
      </trkpt>
      <trkpt lat="48.83029" lon="2.46519">
        <ele>62.200000762939</ele>
        <time>2016-09-12T19:24:01.000Z</time>
      </trkpt>
      <trkpt lat="48.82981" lon="2.46507">
        <ele>61.200000762939</ele>
        <time>2016-09-12T19:24:09.000Z</time>
      </trkpt>
      <trkpt lat="48.82946" lon="2.46495">
        <ele>60</ele>
        <time>2016-09-12T19:24:14.000Z</time>
      </trkpt>
      <trkpt lat="48.829" lon="2.46488">
        <ele>60.400001525879</ele>
        <time>2016-09-12T19:24:21.000Z</time>
      </trkpt>
      <trkpt lat="48.82889" lon="2.4648">
        <ele>60.400001525879</ele>
        <time>2016-09-12T19:24:23.000Z</time>
      </trkpt>
      <trkpt lat="48.82841" lon="2.46478">
        <ele>60.799999237061</ele>
        <time>2016-09-12T19:24:30.000Z</time>
      </trkpt>
      <trkpt lat="48.82819" lon="2.46471">
        <ele>60.799999237061</ele>
        <time>2016-09-12T19:24:34.000Z</time>
      </trkpt>
      <trkpt lat="48.82801" lon="2.46471">
        <ele>61</ele>
        <time>2016-09-12T19:24:37.000Z</time>
      </trkpt>
      <trkpt lat="48.82777" lon="2.46473">
        <ele>61.400001525879</ele>
        <time>2016-09-12T19:24:41.000Z</time>
      </trkpt>
      <trkpt lat="48.82767" lon="2.46477">
        <ele>61.400001525879</ele>
        <time>2016-09-12T19:27:42.000Z</time>
      </trkpt>
      <trkpt lat="48.82761" lon="2.46475">
        <ele>61.200000762939</ele>
        <time>2016-09-12T19:28:22.000Z</time>
      </trkpt>
      <trkpt lat="48.82721" lon="2.46444">
        <ele>59.400001525879</ele>
        <time>2016-09-12T19:28:44.000Z</time>
      </trkpt>
      <trkpt lat="48.82716" lon="2.46446">
        <ele>59.200000762939</ele>
        <time>2016-09-12T19:28:45.000Z</time>
      </trkpt>
      <trkpt lat="48.82697" lon="2.46464">
        <ele>58</ele>
        <time>2016-09-12T19:28:52.000Z</time>
      </trkpt>
      <trkpt lat="48.82653" lon="2.46477">
        <ele>54.200000762939</ele>
        <time>2016-09-12T19:29:01.000Z</time>
      </trkpt>
      <trkpt lat="48.82604" lon="2.46487">
        <ele>50.200000762939</ele>
        <time>2016-09-12T19:29:08.000Z</time>
      </trkpt>
      <trkpt lat="48.82563" lon="2.46489">
        <ele>49.400001525879</ele>
        <time>2016-09-12T19:29:12.000Z</time>
      </trkpt>
      <trkpt lat="48.82539" lon="2.46491">
        <ele>49.200000762939</ele>
        <time>2016-09-12T19:29:14.000Z</time>
      </trkpt>
      <trkpt lat="48.82486" lon="2.46503">
        <ele>49.200000762939</ele>
        <time>2016-09-12T19:29:19.000Z</time>
      </trkpt>
      <trkpt lat="48.82432" lon="2.46514">
        <ele>49</ele>
        <time>2016-09-12T19:29:24.000Z</time>
      </trkpt>
      <trkpt lat="48.82384" lon="2.46528">
        <ele>49.599998474121</ele>
        <time>2016-09-12T19:29:29.000Z</time>
      </trkpt>
      <trkpt lat="48.8233" lon="2.46536">
        <ele>49.400001525879</ele>
        <time>2016-09-12T19:29:35.000Z</time>
      </trkpt>
      <trkpt lat="48.82285" lon="2.46536">
        <ele>49.599998474121</ele>
        <time>2016-09-12T19:29:41.000Z</time>
      </trkpt>
      <trkpt lat="48.82272" lon="2.46532">
        <ele>50.200000762939</ele>
        <time>2016-09-12T19:29:43.000Z</time>
      </trkpt>
      <trkpt lat="48.82231" lon="2.46502">
        <ele>52</ele>
        <time>2016-09-12T19:29:52.000Z</time>
      </trkpt>
      <trkpt lat="48.82213" lon="2.46489">
        <ele>52.799999237061</ele>
        <time>2016-09-12T19:29:57.000Z</time>
      </trkpt>
      <trkpt lat="48.82195" lon="2.46477">
        <ele>53.599998474121</ele>
        <time>2016-09-12T19:30:02.000Z</time>
      </trkpt>
      <trkpt lat="48.82153" lon="2.46459">
        <ele>54.400001525879</ele>
        <time>2016-09-12T19:30:11.000Z</time>
      </trkpt>
      <trkpt lat="48.82105" lon="2.46439">
        <ele>55.400001525879</ele>
        <time>2016-09-12T19:30:19.000Z</time>
      </trkpt>
      <trkpt lat="48.82059" lon="2.46424">
        <ele>54.799999237061</ele>
        <time>2016-09-12T19:30:27.000Z</time>
      </trkpt>
      <trkpt lat="48.82036" lon="2.46421">
        <ele>54.200000762939</ele>
        <time>2016-09-12T19:30:32.000Z</time>
      </trkpt>
      <trkpt lat="48.82028" lon="2.46424">
        <ele>54</ele>
        <time>2016-09-12T19:30:34.000Z</time>
      </trkpt>
      <trkpt lat="48.81987" lon="2.46461">
        <ele>54.599998474121</ele>
        <time>2016-09-12T19:30:49.000Z</time>
      </trkpt>
      <trkpt lat="48.8197" lon="2.46479">
        <ele>54.599998474121</ele>
        <time>2016-09-12T19:30:57.000Z</time>
      </trkpt>
      <trkpt lat="48.81967" lon="2.46475">
        <ele>54.400001525879</ele>
        <time>2016-09-12T19:31:18.000Z</time>
      </trkpt>
      <trkpt lat="48.81968" lon="2.46472">
        <ele>54.400001525879</ele>
        <time>2016-09-12T19:31:20.000Z</time>
      </trkpt>
      <trkpt lat="48.81995" lon="2.46431">
        <ele>54</ele>
        <time>2016-09-12T19:31:50.000Z</time>
      </trkpt>
      <trkpt lat="48.81984" lon="2.46413">
        <ele>53.599998474121</ele>
        <time>2016-09-12T19:31:56.000Z</time>
      </trkpt>
      <trkpt lat="48.81956" lon="2.46352">
        <ele>53.200000762939</ele>
        <time>2016-09-12T19:32:03.000Z</time>
      </trkpt>
      <trkpt lat="48.81939" lon="2.46308">
        <ele>53.400001525879</ele>
        <time>2016-09-12T19:32:08.000Z</time>
      </trkpt>
      <trkpt lat="48.81934" lon="2.46291">
        <ele>54</ele>
        <time>2016-09-12T19:32:10.000Z</time>
      </trkpt>
      <trkpt lat="48.81911" lon="2.46233">
        <ele>56.200000762939</ele>
        <time>2016-09-12T19:32:33.000Z</time>
      </trkpt>
      <trkpt lat="48.81954" lon="2.46198">
        <ele>54.799999237061</ele>
        <time>2016-09-12T19:32:48.000Z</time>
      </trkpt>
      <trkpt lat="48.81996" lon="2.46165">
        <ele>56</ele>
        <time>2016-09-12T19:32:59.000Z</time>
      </trkpt>
      <trkpt lat="48.82004" lon="2.46156">
        <ele>56.200000762939</ele>
        <time>2016-09-12T19:33:01.000Z</time>
      </trkpt>
      <trkpt lat="48.82014" lon="2.46137">
        <ele>56</ele>
        <time>2016-09-12T19:33:05.000Z</time>
      </trkpt>
      <trkpt lat="48.82046" lon="2.46088">
        <ele>54.400001525879</ele>
        <time>2016-09-12T19:33:14.000Z</time>
      </trkpt>
      <trkpt lat="48.8208" lon="2.46037">
        <ele>53</ele>
        <time>2016-09-12T19:33:22.000Z</time>
      </trkpt>
      <trkpt lat="48.82121" lon="2.45992">
        <ele>52.200000762939</ele>
        <time>2016-09-12T19:33:30.000Z</time>
      </trkpt>
      <trkpt lat="48.82142" lon="2.45973">
        <ele>53</ele>
        <time>2016-09-12T19:33:34.000Z</time>
      </trkpt>
      <trkpt lat="48.82182" lon="2.45937">
        <ele>53</ele>
        <time>2016-09-12T19:33:41.000Z</time>
      </trkpt>
      <trkpt lat="48.82225" lon="2.45903">
        <ele>51.799999237061</ele>
        <time>2016-09-12T19:33:48.000Z</time>
      </trkpt>
      <trkpt lat="48.82267" lon="2.45877">
        <ele>50.200000762939</ele>
        <time>2016-09-12T19:33:55.000Z</time>
      </trkpt>
      <trkpt lat="48.82291" lon="2.45858">
        <ele>50.799999237061</ele>
        <time>2016-09-12T19:33:59.000Z</time>
      </trkpt>
      <trkpt lat="48.8231" lon="2.45844">
        <ele>51.400001525879</ele>
        <time>2016-09-12T19:34:02.000Z</time>
      </trkpt>
      <trkpt lat="48.8235" lon="2.45812">
        <ele>52.400001525879</ele>
        <time>2016-09-12T19:34:09.000Z</time>
      </trkpt>
      <trkpt lat="48.82392" lon="2.45786">
        <ele>53.400001525879</ele>
        <time>2016-09-12T19:34:23.000Z</time>
      </trkpt>
      <trkpt lat="48.82393" lon="2.45779">
        <ele>53.200000762939</ele>
        <time>2016-09-12T19:34:45.000Z</time>
      </trkpt>
      <trkpt lat="48.82368" lon="2.45749">
        <ele>52.599998474121</ele>
        <time>2016-09-12T19:34:59.000Z</time>
      </trkpt>
      <trkpt lat="48.82361" lon="2.45736">
        <ele>52.799999237061</ele>
        <time>2016-09-12T19:35:02.000Z</time>
      </trkpt>
      <trkpt lat="48.82352" lon="2.45719">
        <ele>53.200000762939</ele>
        <time>2016-09-12T19:35:05.000Z</time>
      </trkpt>
      <trkpt lat="48.82318" lon="2.45667">
        <ele>55.200000762939</ele>
        <time>2016-09-12T19:35:14.000Z</time>
      </trkpt>
      <trkpt lat="48.82287" lon="2.4561">
        <ele>58.400001525879</ele>
        <time>2016-09-12T19:35:23.000Z</time>
      </trkpt>
      <trkpt lat="48.82259" lon="2.45556">
        <ele>60.400001525879</ele>
        <time>2016-09-12T19:35:32.000Z</time>
      </trkpt>
      <trkpt lat="48.82252" lon="2.45545">
        <ele>60.400001525879</ele>
        <time>2016-09-12T19:35:33.000Z</time>
      </trkpt>
      <trkpt lat="48.82222" lon="2.45487">
        <ele>61</ele>
        <time>2016-09-12T19:35:45.000Z</time>
      </trkpt>
      <trkpt lat="48.8219" lon="2.45431">
        <ele>61.200000762939</ele>
        <time>2016-09-12T19:35:56.000Z</time>
      </trkpt>
      <trkpt lat="48.8216" lon="2.45374">
        <ele>62.400001525879</ele>
        <time>2016-09-12T19:36:07.000Z</time>
      </trkpt>
      <trkpt lat="48.82138" lon="2.45318">
        <ele>64.199996948242</ele>
        <time>2016-09-12T19:36:18.000Z</time>
      </trkpt>
      <trkpt lat="48.8212" lon="2.45286">
        <ele>65.400001525879</ele>
        <time>2016-09-12T19:36:25.000Z</time>
      </trkpt>
      <trkpt lat="48.8211" lon="2.45265">
        <ele>66.400001525879</ele>
        <time>2016-09-12T19:36:29.000Z</time>
      </trkpt>
      <trkpt lat="48.82091" lon="2.45228">
        <ele>67</ele>
        <time>2016-09-12T19:36:36.000Z</time>
      </trkpt>
      <trkpt lat="48.8208" lon="2.45205">
        <ele>67.400001525879</ele>
        <time>2016-09-12T19:36:40.000Z</time>
      </trkpt>
      <trkpt lat="48.8206" lon="2.45164">
        <ele>68.199996948242</ele>
        <time>2016-09-12T19:36:47.000Z</time>
      </trkpt>
      <trkpt lat="48.82038" lon="2.45104">
        <ele>67.199996948242</ele>
        <time>2016-09-12T19:36:57.000Z</time>
      </trkpt>
      <trkpt lat="48.82018" lon="2.45037">
        <ele>67</ele>
        <time>2016-09-12T19:37:08.000Z</time>
      </trkpt>
      <trkpt lat="48.82016" lon="2.45019">
        <ele>67.400001525879</ele>
        <time>2016-09-12T19:37:10.000Z</time>
      </trkpt>
      <trkpt lat="48.82015" lon="2.44944">
        <ele>67</ele>
        <time>2016-09-12T19:37:21.000Z</time>
      </trkpt>
      <trkpt lat="48.82019" lon="2.44873">
        <ele>68</ele>
        <time>2016-09-12T19:37:30.000Z</time>
      </trkpt>
      <trkpt lat="48.82019" lon="2.44856">
        <ele>68.400001525879</ele>
        <time>2016-09-12T19:37:31.000Z</time>
      </trkpt>
      <trkpt lat="48.82021" lon="2.44801">
        <ele>69.400001525879</ele>
        <time>2016-09-12T19:37:38.000Z</time>
      </trkpt>
      <trkpt lat="48.8203" lon="2.44726">
        <ele>68.800003051758</ele>
        <time>2016-09-12T19:37:46.000Z</time>
      </trkpt>
      <trkpt lat="48.82037" lon="2.44655">
        <ele>67.599998474121</ele>
        <time>2016-09-12T19:37:52.000Z</time>
      </trkpt>
      <trkpt lat="48.82042" lon="2.44617">
        <ele>68.800003051758</ele>
        <time>2016-09-12T19:37:56.000Z</time>
      </trkpt>
      <trkpt lat="48.82042" lon="2.44554">
        <ele>69.599998474121</ele>
        <time>2016-09-12T19:38:05.000Z</time>
      </trkpt>
      <trkpt lat="48.82012" lon="2.44523">
        <ele>69.400001525879</ele>
        <time>2016-09-12T19:38:14.000Z</time>
      </trkpt>
      <trkpt lat="48.82" lon="2.44513">
        <ele>68.800003051758</ele>
        <time>2016-09-12T19:38:17.000Z</time>
      </trkpt>
      <trkpt lat="48.81989" lon="2.44502">
        <ele>68.199996948242</ele>
        <time>2016-09-12T19:38:20.000Z</time>
      </trkpt>
      <trkpt lat="48.8195" lon="2.44457">
        <ele>68.199996948242</ele>
        <time>2016-09-12T19:38:30.000Z</time>
      </trkpt>
      <trkpt lat="48.81913" lon="2.44417">
        <ele>63.400001525879</ele>
        <time>2016-09-12T19:38:39.000Z</time>
      </trkpt>
      <trkpt lat="48.8188" lon="2.44368">
        <ele>56.400001525879</ele>
        <time>2016-09-12T19:38:47.000Z</time>
      </trkpt>
      <trkpt lat="48.81873" lon="2.44353">
        <ele>54.799999237061</ele>
        <time>2016-09-12T19:38:48.000Z</time>
      </trkpt>
      <trkpt lat="48.81862" lon="2.44328">
        <ele>52.400001525879</ele>
        <time>2016-09-12T19:38:52.000Z</time>
      </trkpt>
      <trkpt lat="48.81857" lon="2.44288">
        <ele>50.799999237061</ele>
        <time>2016-09-12T19:38:56.000Z</time>
      </trkpt>
      <trkpt lat="48.81862" lon="2.44215">
        <ele>51.599998474121</ele>
        <time>2016-09-12T19:39:03.000Z</time>
      </trkpt>
      <trkpt lat="48.81865" lon="2.44187">
        <ele>52.200000762939</ele>
        <time>2016-09-12T19:39:06.000Z</time>
      </trkpt>
      <trkpt lat="48.81869" lon="2.44145">
        <ele>52.599998474121</ele>
        <time>2016-09-12T19:39:11.000Z</time>
      </trkpt>
      <trkpt lat="48.81872" lon="2.44083">
        <ele>52.599998474121</ele>
        <time>2016-09-12T19:39:18.000Z</time>
      </trkpt>
      <trkpt lat="48.81882" lon="2.4401">
        <ele>52.799999237061</ele>
        <time>2016-09-12T19:39:26.000Z</time>
      </trkpt>
      <trkpt lat="48.81888" lon="2.43974">
        <ele>53.400001525879</ele>
        <time>2016-09-12T19:39:30.000Z</time>
      </trkpt>
      <trkpt lat="48.81902" lon="2.43904">
        <ele>55.400001525879</ele>
        <time>2016-09-12T19:39:38.000Z</time>
      </trkpt>
      <trkpt lat="48.81919" lon="2.4384">
        <ele>58</ele>
        <time>2016-09-12T19:39:49.000Z</time>
      </trkpt>
      <trkpt lat="48.81919" lon="2.4385">
        <ele>58.200000762939</ele>
        <time>2016-09-12T19:40:01.000Z</time>
      </trkpt>
      <trkpt lat="48.81912" lon="2.43917">
        <ele>57.400001525879</ele>
        <time>2016-09-12T19:40:17.000Z</time>
      </trkpt>
      <trkpt lat="48.81907" lon="2.43947">
        <ele>57</ele>
        <time>2016-09-12T19:40:27.000Z</time>
      </trkpt>
      <trkpt lat="48.81905" lon="2.43941">
        <ele>56.400001525879</ele>
        <time>2016-09-12T19:40:35.000Z</time>
      </trkpt>
      <trkpt lat="48.81908" lon="2.43923">
        <ele>56.799999237061</ele>
        <time>2016-09-12T19:40:56.000Z</time>
      </trkpt>
      <trkpt lat="48.81921" lon="2.43856">
        <ele>58.599998474121</ele>
        <time>2016-09-12T19:41:11.000Z</time>
      </trkpt>
      <trkpt lat="48.8193" lon="2.43814">
        <ele>59.799999237061</ele>
        <time>2016-09-12T19:41:18.000Z</time>
      </trkpt>
      <trkpt lat="48.81941" lon="2.4377">
        <ele>61.400001525879</ele>
        <time>2016-09-12T19:41:25.000Z</time>
      </trkpt>
      <trkpt lat="48.81958" lon="2.43706">
        <ele>60.799999237061</ele>
        <time>2016-09-12T19:41:35.000Z</time>
      </trkpt>
      <trkpt lat="48.81962" lon="2.43693">
        <ele>60.599998474121</ele>
        <time>2016-09-12T19:41:36.000Z</time>
      </trkpt>
      <trkpt lat="48.81975" lon="2.43655">
        <ele>61.400001525879</ele>
        <time>2016-09-12T19:41:44.000Z</time>
      </trkpt>
      <trkpt lat="48.81984" lon="2.43628">
        <ele>62.400001525879</ele>
        <time>2016-09-12T19:41:49.000Z</time>
      </trkpt>
      <trkpt lat="48.8199" lon="2.43608">
        <ele>62.599998474121</ele>
        <time>2016-09-12T19:41:52.000Z</time>
      </trkpt>
      <trkpt lat="48.81995" lon="2.43593">
        <ele>62.799999237061</ele>
        <time>2016-09-12T19:41:54.000Z</time>
      </trkpt>
      <trkpt lat="48.82006" lon="2.43565">
        <ele>63.599998474121</ele>
        <time>2016-09-12T19:41:58.000Z</time>
      </trkpt>
      <trkpt lat="48.82035" lon="2.43502">
        <ele>66</ele>
        <time>2016-09-12T19:42:07.000Z</time>
      </trkpt>
      <trkpt lat="48.82067" lon="2.43444">
        <ele>67</ele>
        <time>2016-09-12T19:42:15.000Z</time>
      </trkpt>
      <trkpt lat="48.8209" lon="2.43411">
        <ele>66.400001525879</ele>
        <time>2016-09-12T19:42:20.000Z</time>
      </trkpt>
      <trkpt lat="48.82112" lon="2.43379">
        <ele>66</ele>
        <time>2016-09-12T19:42:25.000Z</time>
      </trkpt>
      <trkpt lat="48.82148" lon="2.43332">
        <ele>65.400001525879</ele>
        <time>2016-09-12T19:42:32.000Z</time>
      </trkpt>
      <trkpt lat="48.8217" lon="2.43306">
        <ele>65.400001525879</ele>
        <time>2016-09-12T19:42:36.000Z</time>
      </trkpt>
      <trkpt lat="48.82208" lon="2.43255">
        <ele>66.400001525879</ele>
        <time>2016-09-12T19:42:43.000Z</time>
      </trkpt>
      <trkpt lat="48.8224" lon="2.43205">
        <ele>65.400001525879</ele>
        <time>2016-09-12T19:42:49.000Z</time>
      </trkpt>
      <trkpt lat="48.8227" lon="2.43153">
        <ele>65.800003051758</ele>
        <time>2016-09-12T19:42:55.000Z</time>
      </trkpt>
      <trkpt lat="48.82294" lon="2.43108">
        <ele>63.799999237061</ele>
        <time>2016-09-12T19:43:00.000Z</time>
      </trkpt>
      <trkpt lat="48.82321" lon="2.43045">
        <ele>63.200000762939</ele>
        <time>2016-09-12T19:43:07.000Z</time>
      </trkpt>
      <trkpt lat="48.82341" lon="2.42976">
        <ele>63.400001525879</ele>
        <time>2016-09-12T19:43:15.000Z</time>
      </trkpt>
      <trkpt lat="48.82361" lon="2.42914">
        <ele>61</ele>
        <time>2016-09-12T19:43:24.000Z</time>
      </trkpt>
      <trkpt lat="48.82375" lon="2.42849">
        <ele>61.799999237061</ele>
        <time>2016-09-12T19:43:38.000Z</time>
      </trkpt>
      <trkpt lat="48.8239" lon="2.42784">
        <ele>59.799999237061</ele>
        <time>2016-09-12T19:43:49.000Z</time>
      </trkpt>
      <trkpt lat="48.82402" lon="2.42725">
        <ele>57.599998474121</ele>
        <time>2016-09-12T19:43:57.000Z</time>
      </trkpt>
      <trkpt lat="48.82407" lon="2.42692">
        <ele>56.599998474121</ele>
        <time>2016-09-12T19:44:01.000Z</time>
      </trkpt>
      <trkpt lat="48.82414" lon="2.42621">
        <ele>55.799999237061</ele>
        <time>2016-09-12T19:44:09.000Z</time>
      </trkpt>
      <trkpt lat="48.8242" lon="2.42547">
        <ele>55.400001525879</ele>
        <time>2016-09-12T19:44:17.000Z</time>
      </trkpt>
      <trkpt lat="48.82421" lon="2.42528">
        <ele>55.200000762939</ele>
        <time>2016-09-12T19:44:19.000Z</time>
      </trkpt>
      <trkpt lat="48.82419" lon="2.42452">
        <ele>55</ele>
        <time>2016-09-12T19:44:27.000Z</time>
      </trkpt>
      <trkpt lat="48.82415" lon="2.4238">
        <ele>56.400001525879</ele>
        <time>2016-09-12T19:44:35.000Z</time>
      </trkpt>
      <trkpt lat="48.82411" lon="2.42311">
        <ele>57</ele>
        <time>2016-09-12T19:44:43.000Z</time>
      </trkpt>
      <trkpt lat="48.82406" lon="2.42235">
        <ele>56.400001525879</ele>
        <time>2016-09-12T19:44:52.000Z</time>
      </trkpt>
      <trkpt lat="48.82403" lon="2.42163">
        <ele>55.400001525879</ele>
        <time>2016-09-12T19:45:00.000Z</time>
      </trkpt>
      <trkpt lat="48.82401" lon="2.42137">
        <ele>55.799999237061</ele>
        <time>2016-09-12T19:45:03.000Z</time>
      </trkpt>
      <trkpt lat="48.82397" lon="2.42068">
        <ele>57.200000762939</ele>
        <time>2016-09-12T19:45:11.000Z</time>
      </trkpt>
      <trkpt lat="48.82407" lon="2.42011">
        <ele>57.200000762939</ele>
        <time>2016-09-12T19:46:18.000Z</time>
      </trkpt>
      <trkpt lat="48.82448" lon="2.4201">
        <ele>55.599998474121</ele>
        <time>2016-09-12T19:46:30.000Z</time>
      </trkpt>
      <trkpt lat="48.82495" lon="2.41996">
        <ele>54.599998474121</ele>
        <time>2016-09-12T19:46:39.000Z</time>
      </trkpt>
      <trkpt lat="48.82529" lon="2.41984">
        <ele>54</ele>
        <time>2016-09-12T19:46:45.000Z</time>
      </trkpt>
      <trkpt lat="48.82563" lon="2.41974">
        <ele>53.799999237061</ele>
        <time>2016-09-12T19:46:51.000Z</time>
      </trkpt>
      <trkpt lat="48.82609" lon="2.41964">
        <ele>52.599998474121</ele>
        <time>2016-09-12T19:46:58.000Z</time>
      </trkpt>
      <trkpt lat="48.82658" lon="2.41954">
        <ele>51.599998474121</ele>
        <time>2016-09-12T19:47:05.000Z</time>
      </trkpt>
      <trkpt lat="48.82707" lon="2.41938">
        <ele>51.200000762939</ele>
        <time>2016-09-12T19:47:12.000Z</time>
      </trkpt>
      <trkpt lat="48.82742" lon="2.41928">
        <ele>52.200000762939</ele>
        <time>2016-09-12T19:47:17.000Z</time>
      </trkpt>
      <trkpt lat="48.82755" lon="2.41926">
        <ele>52.599998474121</ele>
        <time>2016-09-12T19:47:19.000Z</time>
      </trkpt>
      <trkpt lat="48.82803" lon="2.41927">
        <ele>53</ele>
        <time>2016-09-12T19:47:27.000Z</time>
      </trkpt>
      <trkpt lat="48.82831" lon="2.41923">
        <ele>52.400001525879</ele>
        <time>2016-09-12T19:47:44.000Z</time>
      </trkpt>
      <trkpt lat="48.82848" lon="2.41938">
        <ele>52.599998474121</ele>
        <time>2016-09-12T19:47:51.000Z</time>
      </trkpt>
      <trkpt lat="48.82892" lon="2.41971">
        <ele>53</ele>
        <time>2016-09-12T19:48:00.000Z</time>
      </trkpt>
      <trkpt lat="48.82936" lon="2.42003">
        <ele>53</ele>
        <time>2016-09-12T19:48:08.000Z</time>
      </trkpt>
      <trkpt lat="48.82964" lon="2.42018">
        <ele>53.200000762939</ele>
        <time>2016-09-12T19:48:13.000Z</time>
      </trkpt>
      <trkpt lat="48.83009" lon="2.42028">
        <ele>53.400001525879</ele>
        <time>2016-09-12T19:48:21.000Z</time>
      </trkpt>
      <trkpt lat="48.83056" lon="2.42033">
        <ele>53.799999237061</ele>
        <time>2016-09-12T19:48:29.000Z</time>
      </trkpt>
      <trkpt lat="48.83074" lon="2.42033">
        <ele>53.799999237061</ele>
        <time>2016-09-12T19:48:32.000Z</time>
      </trkpt>
      <trkpt lat="48.83108" lon="2.4203">
        <ele>53.799999237061</ele>
        <time>2016-09-12T19:48:38.000Z</time>
      </trkpt>
      <trkpt lat="48.83132" lon="2.42027">
        <ele>54</ele>
        <time>2016-09-12T19:48:42.000Z</time>
      </trkpt>
      <trkpt lat="48.83158" lon="2.42025">
        <ele>54</ele>
        <time>2016-09-12T19:48:46.000Z</time>
      </trkpt>
      <trkpt lat="48.83204" lon="2.42023">
        <ele>53.200000762939</ele>
        <time>2016-09-12T19:48:53.000Z</time>
      </trkpt>
      <trkpt lat="48.83251" lon="2.42018">
        <ele>52.200000762939</ele>
        <time>2016-09-12T19:49:00.000Z</time>
      </trkpt>
      <trkpt lat="48.83285" lon="2.42015">
        <ele>52.200000762939</ele>
        <time>2016-09-12T19:49:05.000Z</time>
      </trkpt>
      <trkpt lat="48.83333" lon="2.42018">
        <ele>53.200000762939</ele>
        <time>2016-09-12T19:49:12.000Z</time>
      </trkpt>
      <trkpt lat="48.8338" lon="2.4202">
        <ele>53.599998474121</ele>
        <time>2016-09-12T19:49:19.000Z</time>
      </trkpt>
      <trkpt lat="48.83407" lon="2.42019">
        <ele>53.799999237061</ele>
        <time>2016-09-12T19:49:23.000Z</time>
      </trkpt>
      <trkpt lat="48.83426" lon="2.42012">
        <ele>54.400001525879</ele>
        <time>2016-09-12T19:49:26.000Z</time>
      </trkpt>
      <trkpt lat="48.83472" lon="2.41989">
        <ele>54.799999237061</ele>
        <time>2016-09-12T19:49:35.000Z</time>
      </trkpt>
      <trkpt lat="48.83492" lon="2.41972">
        <ele>54.599998474121</ele>
        <time>2016-09-12T19:50:39.000Z</time>
      </trkpt>
      <trkpt lat="48.83528" lon="2.41953">
        <ele>54.599998474121</ele>
        <time>2016-09-12T19:50:52.000Z</time>
      </trkpt>
      <trkpt lat="48.83574" lon="2.41926">
        <ele>55.799999237061</ele>
        <time>2016-09-12T19:51:03.000Z</time>
      </trkpt>
      <trkpt lat="48.83617" lon="2.41898">
        <ele>57.200000762939</ele>
        <time>2016-09-12T19:51:13.000Z</time>
      </trkpt>
      <trkpt lat="48.83661" lon="2.41871">
        <ele>57.599998474121</ele>
        <time>2016-09-12T19:51:24.000Z</time>
      </trkpt>
      <trkpt lat="48.83705" lon="2.4185">
        <ele>57.799999237061</ele>
        <time>2016-09-12T19:51:37.000Z</time>
      </trkpt>
      <trkpt lat="48.83713" lon="2.41849">
        <ele>57.799999237061</ele>
        <time>2016-09-12T19:51:38.000Z</time>
      </trkpt>
      <trkpt lat="48.83722" lon="2.41842">
        <ele>57.599998474121</ele>
        <time>2016-09-12T19:51:42.000Z</time>
      </trkpt>
      <trkpt lat="48.83759" lon="2.41816">
        <ele>56.799999237061</ele>
        <time>2016-09-12T19:51:51.000Z</time>
      </trkpt>
      <trkpt lat="48.83781" lon="2.41801">
        <ele>56.599998474121</ele>
        <time>2016-09-12T19:51:56.000Z</time>
      </trkpt>
      <trkpt lat="48.8379" lon="2.41797">
        <ele>56.599998474121</ele>
        <time>2016-09-12T19:51:58.000Z</time>
      </trkpt>
      <trkpt lat="48.8384" lon="2.41784">
        <ele>56.799999237061</ele>
        <time>2016-09-12T19:52:07.000Z</time>
      </trkpt>
      <trkpt lat="48.83886" lon="2.41761">
        <ele>56.200000762939</ele>
        <time>2016-09-12T19:52:16.000Z</time>
      </trkpt>
      <trkpt lat="48.83896" lon="2.41767">
        <ele>56</ele>
        <time>2016-09-12T19:52:20.000Z</time>
      </trkpt>
      <trkpt lat="48.83905" lon="2.41761">
        <ele>55.799999237061</ele>
        <time>2016-09-12T19:52:30.000Z</time>
      </trkpt>
      <trkpt lat="48.83952" lon="2.41754">
        <ele>55</ele>
        <time>2016-09-12T19:52:43.000Z</time>
      </trkpt>
      <trkpt lat="48.84001" lon="2.41753">
        <ele>54.400001525879</ele>
        <time>2016-09-12T19:52:52.000Z</time>
      </trkpt>
      <trkpt lat="48.84051" lon="2.4176">
        <ele>53.799999237061</ele>
        <time>2016-09-12T19:53:00.000Z</time>
      </trkpt>
      <trkpt lat="48.84086" lon="2.41759">
        <ele>53.799999237061</ele>
        <time>2016-09-12T19:53:05.000Z</time>
      </trkpt>
      <trkpt lat="48.84133" lon="2.41753">
        <ele>52.799999237061</ele>
        <time>2016-09-12T19:53:11.000Z</time>
      </trkpt>
      <trkpt lat="48.84185" lon="2.41753">
        <ele>50.200000762939</ele>
        <time>2016-09-12T19:53:18.000Z</time>
      </trkpt>
      <trkpt lat="48.84231" lon="2.41754">
        <ele>51</ele>
        <time>2016-09-12T19:53:24.000Z</time>
      </trkpt>
      <trkpt lat="48.84276" lon="2.41759">
        <ele>52.200000762939</ele>
        <time>2016-09-12T19:53:31.000Z</time>
      </trkpt>
      <trkpt lat="48.84323" lon="2.41773">
        <ele>52</ele>
        <time>2016-09-12T19:53:38.000Z</time>
      </trkpt>
      <trkpt lat="48.84369" lon="2.4177">
        <ele>52</ele>
        <time>2016-09-12T19:54:08.000Z</time>
      </trkpt>
      <trkpt lat="48.84415" lon="2.41769">
        <ele>53.599998474121</ele>
        <time>2016-09-12T19:54:21.000Z</time>
      </trkpt>
      <trkpt lat="48.84461" lon="2.41766">
        <ele>55.400001525879</ele>
        <time>2016-09-12T19:54:29.000Z</time>
      </trkpt>
      <trkpt lat="48.84506" lon="2.41766">
        <ele>57.599998474121</ele>
        <time>2016-09-12T19:54:37.000Z</time>
      </trkpt>
      <trkpt lat="48.84555" lon="2.41767">
        <ele>58.200000762939</ele>
        <time>2016-09-12T19:54:46.000Z</time>
      </trkpt>
      <trkpt lat="48.84603" lon="2.41759">
        <ele>58.200000762939</ele>
        <time>2016-09-12T19:54:57.000Z</time>
      </trkpt>
      <trkpt lat="48.84649" lon="2.41769">
        <ele>57</ele>
        <time>2016-09-12T19:55:10.000Z</time>
      </trkpt>
      <trkpt lat="48.84655" lon="2.41766">
        <ele>56.400001525879</ele>
        <time>2016-09-12T19:55:11.000Z</time>
      </trkpt>
      <trkpt lat="48.84674" lon="2.41757">
        <ele>55.200000762939</ele>
        <time>2016-09-12T19:55:23.000Z</time>
      </trkpt>
      <trkpt lat="48.84661" lon="2.41698">
        <ele>55.799999237061</ele>
        <time>2016-09-12T19:55:36.000Z</time>
      </trkpt>
      <trkpt lat="48.84661" lon="2.41678">
        <ele>55</ele>
        <time>2016-09-12T19:55:39.000Z</time>
      </trkpt>
      <trkpt lat="48.84672" lon="2.41609">
        <ele>54.200000762939</ele>
        <time>2016-09-12T19:55:49.000Z</time>
      </trkpt>
      <trkpt lat="48.84676" lon="2.41583">
        <ele>54.599998474121</ele>
        <time>2016-09-12T19:55:53.000Z</time>
      </trkpt>
      <trkpt lat="48.84691" lon="2.41517">
        <ele>50.599998474121</ele>
        <time>2016-09-12T19:56:06.000Z</time>
      </trkpt>
      <trkpt lat="48.84712" lon="2.41457">
        <ele>48.400001525879</ele>
        <time>2016-09-12T19:56:20.000Z</time>
      </trkpt>
      <trkpt lat="48.84708" lon="2.41424">
        <ele>47.599998474121</ele>
        <time>2016-09-12T19:56:50.000Z</time>
      </trkpt>
      <trkpt lat="48.84697" lon="2.41386">
        <ele>49</ele>
        <time>2016-09-12T19:57:13.000Z</time>
      </trkpt>
      <trkpt lat="48.84697" lon="2.41373">
        <ele>49.799999237061</ele>
        <time>2016-09-12T19:59:03.000Z</time>
      </trkpt>
      <trkpt lat="48.84702" lon="2.41306">
        <ele>53</ele>
        <time>2016-09-12T19:59:18.000Z</time>
      </trkpt>
      <trkpt lat="48.84704" lon="2.41284">
        <ele>53.599998474121</ele>
        <time>2016-09-12T19:59:21.000Z</time>
      </trkpt>
      <trkpt lat="48.8471" lon="2.4121">
        <ele>54.200000762939</ele>
        <time>2016-09-12T19:59:31.000Z</time>
      </trkpt>
      <trkpt lat="48.84717" lon="2.41137">
        <ele>55</ele>
        <time>2016-09-12T19:59:44.000Z</time>
      </trkpt>
      <trkpt lat="48.84717" lon="2.41078">
        <ele>54.400001525879</ele>
        <time>2016-09-12T19:59:54.000Z</time>
      </trkpt>
      <trkpt lat="48.8472" lon="2.41045">
        <ele>54.799999237061</ele>
        <time>2016-09-12T19:59:59.000Z</time>
      </trkpt>
      <trkpt lat="48.84726" lon="2.4099">
        <ele>54.400001525879</ele>
        <time>2016-09-12T20:00:07.000Z</time>
      </trkpt>
      <trkpt lat="48.84728" lon="2.4097">
        <ele>54.799999237061</ele>
        <time>2016-09-12T20:00:10.000Z</time>
      </trkpt>
      <trkpt lat="48.8473" lon="2.40944">
        <ele>55.400001525879</ele>
        <time>2016-09-12T20:00:14.000Z</time>
      </trkpt>
      <trkpt lat="48.8473" lon="2.40926">
        <ele>56.200000762939</ele>
        <time>2016-09-12T20:00:17.000Z</time>
      </trkpt>
      <trkpt lat="48.84736" lon="2.40856">
        <ele>53.400001525879</ele>
        <time>2016-09-12T20:00:27.000Z</time>
      </trkpt>
      <trkpt lat="48.84739" lon="2.40823">
        <ele>52.799999237061</ele>
        <time>2016-09-12T20:00:31.000Z</time>
      </trkpt>
      <trkpt lat="48.84746" lon="2.4075">
        <ele>53</ele>
        <time>2016-09-12T20:00:40.000Z</time>
      </trkpt>
      <trkpt lat="48.84749" lon="2.40726">
        <ele>53.599998474121</ele>
        <time>2016-09-12T20:00:43.000Z</time>
      </trkpt>
      <trkpt lat="48.8475" lon="2.4071">
        <ele>53.400001525879</ele>
        <time>2016-09-12T20:00:45.000Z</time>
      </trkpt>
      <trkpt lat="48.84756" lon="2.40646">
        <ele>52.799999237061</ele>
        <time>2016-09-12T20:00:55.000Z</time>
      </trkpt>
      <trkpt lat="48.84761" lon="2.40578">
        <ele>54.400001525879</ele>
        <time>2016-09-12T20:01:05.000Z</time>
      </trkpt>
      <trkpt lat="48.84763" lon="2.40561">
        <ele>54.200000762939</ele>
        <time>2016-09-12T20:01:06.000Z</time>
      </trkpt>
      <trkpt lat="48.84764" lon="2.40553">
        <ele>54</ele>
        <time>2016-09-12T20:01:08.000Z</time>
      </trkpt>
      <trkpt lat="48.84765" lon="2.40537">
        <ele>53.799999237061</ele>
        <time>2016-09-12T20:01:09.000Z</time>
      </trkpt>
      <trkpt lat="48.84765" lon="2.40529">
        <ele>53.799999237061</ele>
        <time>2016-09-12T20:01:11.000Z</time>
      </trkpt>
      <trkpt lat="48.84773" lon="2.40456">
        <ele>55.599998474121</ele>
        <time>2016-09-12T20:01:20.000Z</time>
      </trkpt>
      <trkpt lat="48.84781" lon="2.40382">
        <ele>59</ele>
        <time>2016-09-12T20:01:28.000Z</time>
      </trkpt>
      <trkpt lat="48.84784" lon="2.40351">
        <ele>60</ele>
        <time>2016-09-12T20:01:31.000Z</time>
      </trkpt>
      <trkpt lat="48.84789" lon="2.40278">
        <ele>58.400001525879</ele>
        <time>2016-09-12T20:01:38.000Z</time>
      </trkpt>
      <trkpt lat="48.84795" lon="2.40203">
        <ele>57.200000762939</ele>
        <time>2016-09-12T20:01:45.000Z</time>
      </trkpt>
      <trkpt lat="48.848" lon="2.40135">
        <ele>58</ele>
        <time>2016-09-12T20:01:51.000Z</time>
      </trkpt>
      <trkpt lat="48.84805" lon="2.40058">
        <ele>57</ele>
        <time>2016-09-12T20:01:58.000Z</time>
      </trkpt>
      <trkpt lat="48.84808" lon="2.39984">
        <ele>54.599998474121</ele>
        <time>2016-09-12T20:02:05.000Z</time>
      </trkpt>
      <trkpt lat="48.84819" lon="2.39916">
        <ele>53.599998474121</ele>
        <time>2016-09-12T20:02:16.000Z</time>
      </trkpt>
      <trkpt lat="48.84822" lon="2.39869">
        <ele>57</ele>
        <time>2016-09-12T20:02:25.000Z</time>
      </trkpt>
      <trkpt lat="48.84829" lon="2.39796">
        <ele>57.799999237061</ele>
        <time>2016-09-12T20:02:36.000Z</time>
      </trkpt>
      <trkpt lat="48.8483" lon="2.3979">
        <ele>57.599998474121</ele>
        <time>2016-09-12T20:02:37.000Z</time>
      </trkpt>
      <trkpt lat="48.84831" lon="2.39756">
        <ele>56.799999237061</ele>
        <time>2016-09-12T20:02:43.000Z</time>
      </trkpt>
      <trkpt lat="48.84839" lon="2.397">
        <ele>54.400001525879</ele>
        <time>2016-09-12T20:02:53.000Z</time>
      </trkpt>
      <trkpt lat="48.84849" lon="2.39681">
        <ele>53</ele>
        <time>2016-09-12T20:02:56.000Z</time>
      </trkpt>
      <trkpt lat="48.84875" lon="2.39648">
        <ele>53.200000762939</ele>
        <time>2016-09-12T20:03:02.000Z</time>
      </trkpt>
      <trkpt lat="48.84894" lon="2.39595">
        <ele>53</ele>
        <time>2016-09-12T20:03:10.000Z</time>
      </trkpt>
      <trkpt lat="48.84895" lon="2.39582">
        <ele>52.400001525879</ele>
        <time>2016-09-12T20:03:12.000Z</time>
      </trkpt>
      <trkpt lat="48.84869" lon="2.39524">
        <ele>51.400001525879</ele>
        <time>2016-09-12T20:03:26.000Z</time>
      </trkpt>
      <trkpt lat="48.8486" lon="2.39465">
        <ele>53.200000762939</ele>
        <time>2016-09-12T20:03:43.000Z</time>
      </trkpt>
      <trkpt lat="48.84866" lon="2.39439">
        <ele>54.799999237061</ele>
        <time>2016-09-12T20:03:48.000Z</time>
      </trkpt>
      <trkpt lat="48.84874" lon="2.39371">
        <ele>56.400001525879</ele>
        <time>2016-09-12T20:03:57.000Z</time>
      </trkpt>
      <trkpt lat="48.84881" lon="2.39329">
        <ele>56.200000762939</ele>
        <time>2016-09-12T20:04:02.000Z</time>
      </trkpt>
      <trkpt lat="48.84888" lon="2.39255">
        <ele>53.400001525879</ele>
        <time>2016-09-12T20:04:10.000Z</time>
      </trkpt>
      <trkpt lat="48.84889" lon="2.39245">
        <ele>52.599998474121</ele>
        <time>2016-09-12T20:04:11.000Z</time>
      </trkpt>
      <trkpt lat="48.84899" lon="2.39174">
        <ele>50.200000762939</ele>
        <time>2016-09-12T20:04:17.000Z</time>
      </trkpt>
      <trkpt lat="48.84911" lon="2.39098">
        <ele>48</ele>
        <time>2016-09-12T20:04:23.000Z</time>
      </trkpt>
      <trkpt lat="48.84923" lon="2.39022">
        <ele>47.799999237061</ele>
        <time>2016-09-12T20:04:29.000Z</time>
      </trkpt>
      <trkpt lat="48.84936" lon="2.38952">
        <ele>48</ele>
        <time>2016-09-12T20:04:35.000Z</time>
      </trkpt>
      <trkpt lat="48.84955" lon="2.38879">
        <ele>46.599998474121</ele>
        <time>2016-09-12T20:04:42.000Z</time>
      </trkpt>
      <trkpt lat="48.8497" lon="2.3881">
        <ele>45</ele>
        <time>2016-09-12T20:04:48.000Z</time>
      </trkpt>
      <trkpt lat="48.8498" lon="2.38739">
        <ele>45.200000762939</ele>
        <time>2016-09-12T20:04:54.000Z</time>
      </trkpt>
      <trkpt lat="48.8499" lon="2.38669">
        <ele>44.400001525879</ele>
        <time>2016-09-12T20:05:00.000Z</time>
      </trkpt>
      <trkpt lat="48.84998" lon="2.38592">
        <ele>45.200000762939</ele>
        <time>2016-09-12T20:05:06.000Z</time>
      </trkpt>
      <trkpt lat="48.85007" lon="2.38523">
        <ele>45</ele>
        <time>2016-09-12T20:05:12.000Z</time>
      </trkpt>
      <trkpt lat="48.85019" lon="2.38451">
        <ele>43.400001525879</ele>
        <time>2016-09-12T20:05:22.000Z</time>
      </trkpt>
      <trkpt lat="48.85024" lon="2.38377">
        <ele>39.799999237061</ele>
        <time>2016-09-12T20:05:35.000Z</time>
      </trkpt>
      <trkpt lat="48.85024" lon="2.38364">
        <ele>39</ele>
        <time>2016-09-12T20:05:37.000Z</time>
      </trkpt>
      <trkpt lat="48.85031" lon="2.38292">
        <ele>39.599998474121</ele>
        <time>2016-09-12T20:05:47.000Z</time>
      </trkpt>
      <trkpt lat="48.85036" lon="2.38218">
        <ele>42.200000762939</ele>
        <time>2016-09-12T20:06:00.000Z</time>
      </trkpt>
      <trkpt lat="48.85044" lon="2.38157">
        <ele>42.799999237061</ele>
        <time>2016-09-12T20:06:08.000Z</time>
      </trkpt>
      <trkpt lat="48.85049" lon="2.38095">
        <ele>43.400001525879</ele>
        <time>2016-09-12T20:06:15.000Z</time>
      </trkpt>
      <trkpt lat="48.85046" lon="2.38033">
        <ele>41.599998474121</ele>
        <time>2016-09-12T20:06:22.000Z</time>
      </trkpt>
      <trkpt lat="48.85047" lon="2.38016">
        <ele>41.200000762939</ele>
        <time>2016-09-12T20:06:24.000Z</time>
      </trkpt>
      <trkpt lat="48.85052" lon="2.37973">
        <ele>40.599998474121</ele>
        <time>2016-09-12T20:06:30.000Z</time>
      </trkpt>
      <trkpt lat="48.85053" lon="2.37937">
        <ele>40.799999237061</ele>
        <time>2016-09-12T20:06:36.000Z</time>
      </trkpt>
      <trkpt lat="48.85053" lon="2.37923">
        <ele>40.799999237061</ele>
        <time>2016-09-12T20:06:38.000Z</time>
      </trkpt>
      <trkpt lat="48.85053" lon="2.37917">
        <ele>41</ele>
        <time>2016-09-12T20:06:39.000Z</time>
      </trkpt>
      <trkpt lat="48.85056" lon="2.379">
        <ele>41.200000762939</ele>
        <time>2016-09-12T20:06:41.000Z</time>
      </trkpt>
      <trkpt lat="48.8506" lon="2.37866">
        <ele>41.599998474121</ele>
        <time>2016-09-12T20:06:46.000Z</time>
      </trkpt>
      <trkpt lat="48.85076" lon="2.37817">
        <ele>42.200000762939</ele>
        <time>2016-09-12T20:06:52.000Z</time>
      </trkpt>
      <trkpt lat="48.85102" lon="2.37759">
        <ele>42.799999237061</ele>
        <time>2016-09-12T20:07:01.000Z</time>
      </trkpt>
      <trkpt lat="48.85107" lon="2.37744">
        <ele>43.200000762939</ele>
        <time>2016-09-12T20:07:56.000Z</time>
      </trkpt>
      <trkpt lat="48.85127" lon="2.37681">
        <ele>46</ele>
        <time>2016-09-12T20:08:11.000Z</time>
      </trkpt>
      <trkpt lat="48.8514" lon="2.37612">
        <ele>45</ele>
        <time>2016-09-12T20:08:31.000Z</time>
      </trkpt>
      <trkpt lat="48.85143" lon="2.37601">
        <ele>45</ele>
        <time>2016-09-12T20:08:33.000Z</time>
      </trkpt>
      <trkpt lat="48.85164" lon="2.37533">
        <ele>44.200000762939</ele>
        <time>2016-09-12T20:08:43.000Z</time>
      </trkpt>
      <trkpt lat="48.85181" lon="2.37469">
        <ele>44</ele>
        <time>2016-09-12T20:08:51.000Z</time>
      </trkpt>
      <trkpt lat="48.85197" lon="2.374">
        <ele>44</ele>
        <time>2016-09-12T20:08:59.000Z</time>
      </trkpt>
      <trkpt lat="48.85211" lon="2.37334">
        <ele>43.799999237061</ele>
        <time>2016-09-12T20:09:07.000Z</time>
      </trkpt>
      <trkpt lat="48.85226" lon="2.37269">
        <ele>42.799999237061</ele>
        <time>2016-09-12T20:09:15.000Z</time>
      </trkpt>
      <trkpt lat="48.85244" lon="2.37206">
        <ele>44.799999237061</ele>
        <time>2016-09-12T20:09:23.000Z</time>
      </trkpt>
      <trkpt lat="48.85247" lon="2.37199">
        <ele>44.400001525879</ele>
        <time>2016-09-12T20:09:24.000Z</time>
      </trkpt>
      <trkpt lat="48.85251" lon="2.37183">
        <ele>44</ele>
        <time>2016-09-12T20:09:26.000Z</time>
      </trkpt>
      <trkpt lat="48.85276" lon="2.37119">
        <ele>45.200000762939</ele>
        <time>2016-09-12T20:09:35.000Z</time>
      </trkpt>
      <trkpt lat="48.85303" lon="2.37062">
        <ele>46.200000762939</ele>
        <time>2016-09-12T20:09:44.000Z</time>
      </trkpt>
      <trkpt lat="48.85337" lon="2.37014">
        <ele>43.799999237061</ele>
        <time>2016-09-12T20:09:55.000Z</time>
      </trkpt>
      <trkpt lat="48.85339" lon="2.36989">
        <ele>43</ele>
        <time>2016-09-12T20:10:02.000Z</time>
      </trkpt>
      <trkpt lat="48.8535" lon="2.36983">
        <ele>42.200000762939</ele>
        <time>2016-09-12T20:10:11.000Z</time>
      </trkpt>
      <trkpt lat="48.85359" lon="2.36976">
        <ele>42.200000762939</ele>
        <time>2016-09-12T20:11:11.000Z</time>
      </trkpt>
      <trkpt lat="48.85369" lon="2.36959">
        <ele>42.400001525879</ele>
        <time>2016-09-12T20:11:18.000Z</time>
      </trkpt>
      <trkpt lat="48.85368" lon="2.36955">
        <ele>42.400001525879</ele>
        <time>2016-09-12T20:11:20.000Z</time>
      </trkpt>
      <trkpt lat="48.85369" lon="2.36946">
        <ele>42.400001525879</ele>
        <time>2016-09-12T20:11:23.000Z</time>
      </trkpt>
      <trkpt lat="48.85376" lon="2.36923">
        <ele>42.200000762939</ele>
        <time>2016-09-12T20:11:50.000Z</time>
      </trkpt>
      <trkpt lat="48.85376" lon="2.36914">
        <ele>42</ele>
        <time>2016-09-12T20:11:53.000Z</time>
      </trkpt>
      <trkpt lat="48.8538" lon="2.36898">
        <ele>42.799999237061</ele>
        <time>2016-09-12T20:11:59.000Z</time>
      </trkpt>
      <trkpt lat="48.8537" lon="2.36894">
        <ele>43.599998474121</ele>
        <time>2016-09-12T20:12:27.000Z</time>
      </trkpt>
      <trkpt lat="48.85386" lon="2.36826">
        <ele>47.599998474121</ele>
        <time>2016-09-12T20:12:42.000Z</time>
      </trkpt>
      <trkpt lat="48.85387" lon="2.36813">
        <ele>47.400001525879</ele>
        <time>2016-09-12T20:12:43.000Z</time>
      </trkpt>
      <trkpt lat="48.85385" lon="2.36752">
        <ele>47.599998474121</ele>
        <time>2016-09-12T20:12:54.000Z</time>
      </trkpt>
      <trkpt lat="48.85361" lon="2.36734">
        <ele>46.200000762939</ele>
        <time>2016-09-12T20:13:02.000Z</time>
      </trkpt>
      <trkpt lat="48.85357" lon="2.36728">
        <ele>45.799999237061</ele>
        <time>2016-09-12T20:13:04.000Z</time>
      </trkpt>
      <trkpt lat="48.85359" lon="2.36654">
        <ele>42.400001525879</ele>
        <time>2016-09-12T20:13:16.000Z</time>
      </trkpt>
      <trkpt lat="48.85376" lon="2.36589">
        <ele>43.799999237061</ele>
        <time>2016-09-12T20:13:25.000Z</time>
      </trkpt>
      <trkpt lat="48.85385" lon="2.36557">
        <ele>43.200000762939</ele>
        <time>2016-09-12T20:13:29.000Z</time>
      </trkpt>
      <trkpt lat="48.8539" lon="2.36534">
        <ele>43.200000762939</ele>
        <time>2016-09-12T20:13:32.000Z</time>
      </trkpt>
      <trkpt lat="48.85406" lon="2.36468">
        <ele>45</ele>
        <time>2016-09-12T20:13:40.000Z</time>
      </trkpt>
      <trkpt lat="48.85427" lon="2.36399">
        <ele>45.599998474121</ele>
        <time>2016-09-12T20:13:48.000Z</time>
      </trkpt>
      <trkpt lat="48.85451" lon="2.36331">
        <ele>44.799999237061</ele>
        <time>2016-09-12T20:13:56.000Z</time>
      </trkpt>
      <trkpt lat="48.85467" lon="2.36278">
        <ele>42.400001525879</ele>
        <time>2016-09-12T20:14:02.000Z</time>
      </trkpt>
      <trkpt lat="48.85489" lon="2.36214">
        <ele>42.200000762939</ele>
        <time>2016-09-12T20:14:10.000Z</time>
      </trkpt>
      <trkpt lat="48.85509" lon="2.36152">
        <ele>44.400001525879</ele>
        <time>2016-09-12T20:14:18.000Z</time>
      </trkpt>
      <trkpt lat="48.85514" lon="2.36136">
        <ele>44.400001525879</ele>
        <time>2016-09-12T20:14:19.000Z</time>
      </trkpt>
      <trkpt lat="48.85516" lon="2.36128">
        <ele>44.400001525879</ele>
        <time>2016-09-12T20:14:21.000Z</time>
      </trkpt>
      <trkpt lat="48.85534" lon="2.36061">
        <ele>44.400001525879</ele>
        <time>2016-09-12T20:14:29.000Z</time>
      </trkpt>
      <trkpt lat="48.85536" lon="2.36053">
        <ele>44.599998474121</ele>
        <time>2016-09-12T20:14:30.000Z</time>
      </trkpt>
      <trkpt lat="48.85554" lon="2.35989">
        <ele>45.200000762939</ele>
        <time>2016-09-12T20:14:38.000Z</time>
      </trkpt>
      <trkpt lat="48.8557" lon="2.35921">
        <ele>45.200000762939</ele>
        <time>2016-09-12T20:14:46.000Z</time>
      </trkpt>
      <trkpt lat="48.8558" lon="2.35876">
        <ele>44.400001525879</ele>
        <time>2016-09-12T20:14:51.000Z</time>
      </trkpt>
      <trkpt lat="48.85595" lon="2.35811">
        <ele>45</ele>
        <time>2016-09-12T20:14:58.000Z</time>
      </trkpt>
      <trkpt lat="48.85611" lon="2.35741">
        <ele>45</ele>
        <time>2016-09-12T20:15:06.000Z</time>
      </trkpt>
      <trkpt lat="48.85628" lon="2.35672">
        <ele>44.799999237061</ele>
        <time>2016-09-12T20:15:14.000Z</time>
      </trkpt>
      <trkpt lat="48.85647" lon="2.35601">
        <ele>44.400001525879</ele>
        <time>2016-09-12T20:15:22.000Z</time>
      </trkpt>
      <trkpt lat="48.85664" lon="2.35534">
        <ele>44.200000762939</ele>
        <time>2016-09-12T20:15:29.000Z</time>
      </trkpt>
      <trkpt lat="48.85682" lon="2.35466">
        <ele>46</ele>
        <time>2016-09-12T20:15:36.000Z</time>
      </trkpt>
      <trkpt lat="48.85694" lon="2.35419">
        <ele>45</ele>
        <time>2016-09-12T20:15:42.000Z</time>
      </trkpt>
      <trkpt lat="48.85698" lon="2.35393">
        <ele>46.400001525879</ele>
        <time>2016-09-12T20:15:46.000Z</time>
      </trkpt>
      <trkpt lat="48.85706" lon="2.35373">
        <ele>47.599998474121</ele>
        <time>2016-09-12T20:15:49.000Z</time>
      </trkpt>
      <trkpt lat="48.85714" lon="2.35351">
        <ele>49</ele>
        <time>2016-09-12T20:15:52.000Z</time>
      </trkpt>
      <trkpt lat="48.85734" lon="2.35284">
        <ele>49</ele>
        <time>2016-09-12T20:16:00.000Z</time>
      </trkpt>
      <trkpt lat="48.85743" lon="2.3522">
        <ele>43.799999237061</ele>
        <time>2016-09-12T20:16:08.000Z</time>
      </trkpt>
      <trkpt lat="48.85749" lon="2.35169">
        <ele>40.799999237061</ele>
        <time>2016-09-12T20:16:14.000Z</time>
      </trkpt>
      <trkpt lat="48.85754" lon="2.35152">
        <ele>40.200000762939</ele>
        <time>2016-09-12T20:16:16.000Z</time>
      </trkpt>
      <trkpt lat="48.85773" lon="2.35087">
        <ele>44.799999237061</ele>
        <time>2016-09-12T20:16:24.000Z</time>
      </trkpt>
      <trkpt lat="48.85795" lon="2.35019">
        <ele>48.200000762939</ele>
        <time>2016-09-12T20:16:32.000Z</time>
      </trkpt>
      <trkpt lat="48.85805" lon="2.34986">
        <ele>46.599998474121</ele>
        <time>2016-09-12T20:16:36.000Z</time>
      </trkpt>
      <trkpt lat="48.85824" lon="2.34925">
        <ele>45.200000762939</ele>
        <time>2016-09-12T20:16:43.000Z</time>
      </trkpt>
      <trkpt lat="48.85845" lon="2.34861">
        <ele>46.599998474121</ele>
        <time>2016-09-12T20:16:50.000Z</time>
      </trkpt>
      <trkpt lat="48.85868" lon="2.34799">
        <ele>47.599998474121</ele>
        <time>2016-09-12T20:16:57.000Z</time>
      </trkpt>
      <trkpt lat="48.85885" lon="2.34749">
        <ele>46</ele>
        <time>2016-09-12T20:17:03.000Z</time>
      </trkpt>
      <trkpt lat="48.85925" lon="2.34716">
        <ele>45.400001525879</ele>
        <time>2016-09-12T20:17:12.000Z</time>
      </trkpt>
      <trkpt lat="48.85956" lon="2.34716">
        <ele>45.400001525879</ele>
        <time>2016-09-12T20:17:25.000Z</time>
      </trkpt>
    </trkseg>
  </trk>
</gpx>